<?xml version="1.0" encoding="UTF-8" standalone="no" ?>
<gpx xmlns="http://www.topografix.com/GPX/1/1" xmlns:xsi="http://www.w3.org/2001/XMLSchema-instance" xsi:schemaLocation="http://www.topografix.com/GPX/1/1 http://www.topografix.com/GPX/1/1/gpx.xsd" version="1.1" creator="VisuGPX - https://www.visugpx.com">
  <metadata>
    <name>RSPG La Piarre le Château</name>
    <desc><![CDATA[Au départ de la Piarre hameau du château prendre le GR 94 qui monte vers les crêtes, les suivre vers le col de Carabes et le col de la Selle, retour vers la Piarre par le chemin des Chaumes, le col du Charron.]]></desc>
  </metadata>
  <trk>
    <name><![CDATA[La Piarre le château: 22 MAI 2014 09:43]]></name>
    <trkseg>
      <trkpt lat="44.49006" lon="5.66452">
        <ele>1164.29</ele>
        <time>2014-05-22T07:43:31Z</time>
      </trkpt>
      <trkpt lat="44.49007" lon="5.66451">
        <ele>1164.77</ele>
        <time>2014-05-22T07:43:32Z</time>
      </trkpt>
      <trkpt lat="44.49008" lon="5.66451">
        <ele>1164.77</ele>
        <time>2014-05-22T07:43:33Z</time>
      </trkpt>
      <trkpt lat="44.49018" lon="5.66443">
        <ele>1167.66</ele>
        <time>2014-05-22T07:43:49Z</time>
      </trkpt>
      <trkpt lat="44.4903" lon="5.66432">
        <ele>1166.7</ele>
        <time>2014-05-22T07:44:04Z</time>
      </trkpt>
      <trkpt lat="44.49046" lon="5.6642">
        <ele>1167.18</ele>
        <time>2014-05-22T07:44:22Z</time>
      </trkpt>
      <trkpt lat="44.49047" lon="5.66418">
        <ele>1167.18</ele>
        <time>2014-05-22T07:44:24Z</time>
      </trkpt>
      <trkpt lat="44.49055" lon="5.66414">
        <ele>1167.18</ele>
        <time>2014-05-22T07:44:31Z</time>
      </trkpt>
      <trkpt lat="44.49074" lon="5.66409">
        <ele>1167.66</ele>
        <time>2014-05-22T07:44:47Z</time>
      </trkpt>
      <trkpt lat="44.49081" lon="5.66401">
        <ele>1168.14</ele>
        <time>2014-05-22T07:44:57Z</time>
      </trkpt>
      <trkpt lat="44.49094" lon="5.66376">
        <ele>1169.58</ele>
        <time>2014-05-22T07:45:18Z</time>
      </trkpt>
      <trkpt lat="44.49095" lon="5.66374">
        <ele>1169.58</ele>
        <time>2014-05-22T07:45:20Z</time>
      </trkpt>
      <trkpt lat="44.49108" lon="5.66357">
        <ele>1171.02</ele>
        <time>2014-05-22T07:45:37Z</time>
      </trkpt>
      <trkpt lat="44.49123" lon="5.66346">
        <ele>1172.47</ele>
        <time>2014-05-22T07:45:53Z</time>
      </trkpt>
      <trkpt lat="44.49139" lon="5.66342">
        <ele>1173.91</ele>
        <time>2014-05-22T07:46:09Z</time>
      </trkpt>
      <trkpt lat="44.49142" lon="5.66343">
        <ele>1174.39</ele>
        <time>2014-05-22T07:46:14Z</time>
      </trkpt>
      <trkpt lat="44.49171" lon="5.66352">
        <ele>1175.83</ele>
        <time>2014-05-22T07:46:35Z</time>
      </trkpt>
      <trkpt lat="44.49184" lon="5.66348">
        <ele>1176.31</ele>
        <time>2014-05-22T07:46:53Z</time>
      </trkpt>
      <trkpt lat="44.49185" lon="5.66345">
        <ele>1176.31</ele>
        <time>2014-05-22T07:46:57Z</time>
      </trkpt>
      <trkpt lat="44.49198" lon="5.66332">
        <ele>1178.23</ele>
        <time>2014-05-22T07:47:15Z</time>
      </trkpt>
      <trkpt lat="44.49215" lon="5.66327">
        <ele>1179.67</ele>
        <time>2014-05-22T07:47:33Z</time>
      </trkpt>
      <trkpt lat="44.49231" lon="5.66325">
        <ele>1180.16</ele>
        <time>2014-05-22T07:47:49Z</time>
      </trkpt>
      <trkpt lat="44.4925" lon="5.66329">
        <ele>1181.12</ele>
        <time>2014-05-22T07:48:05Z</time>
      </trkpt>
      <trkpt lat="44.49261" lon="5.66332">
        <ele>1182.08</ele>
        <time>2014-05-22T07:48:22Z</time>
      </trkpt>
      <trkpt lat="44.49266" lon="5.6633">
        <ele>1182.56</ele>
        <time>2014-05-22T07:48:52Z</time>
      </trkpt>
      <trkpt lat="44.49266" lon="5.6633">
        <ele>1182.08</ele>
        <time>2014-05-22T07:49:21Z</time>
      </trkpt>
      <trkpt lat="44.49261" lon="5.66331">
        <ele>1182.56</ele>
        <time>2014-05-22T07:49:53Z</time>
      </trkpt>
      <trkpt lat="44.49264" lon="5.66328">
        <ele>1183.52</ele>
        <time>2014-05-22T07:50:21Z</time>
      </trkpt>
      <trkpt lat="44.49263" lon="5.66328">
        <ele>1183.04</ele>
        <time>2014-05-22T07:50:52Z</time>
      </trkpt>
      <trkpt lat="44.49267" lon="5.66333">
        <ele>1183.04</ele>
        <time>2014-05-22T07:51:11Z</time>
      </trkpt>
      <trkpt lat="44.49273" lon="5.66338">
        <ele>1184.48</ele>
        <time>2014-05-22T07:51:29Z</time>
      </trkpt>
      <trkpt lat="44.49269" lon="5.66346">
        <ele>1187.37</ele>
        <time>2014-05-22T07:51:49Z</time>
      </trkpt>
      <trkpt lat="44.49274" lon="5.66348">
        <ele>1189.77</ele>
        <time>2014-05-22T07:52:08Z</time>
      </trkpt>
      <trkpt lat="44.49281" lon="5.66351">
        <ele>1192.65</ele>
        <time>2014-05-22T07:52:27Z</time>
      </trkpt>
      <trkpt lat="44.49279" lon="5.66364">
        <ele>1196.02</ele>
        <time>2014-05-22T07:52:44Z</time>
      </trkpt>
      <trkpt lat="44.49282" lon="5.66361">
        <ele>1197.46</ele>
        <time>2014-05-22T07:53:03Z</time>
      </trkpt>
      <trkpt lat="44.49286" lon="5.66362">
        <ele>1199.86</ele>
        <time>2014-05-22T07:53:21Z</time>
      </trkpt>
      <trkpt lat="44.49293" lon="5.66374">
        <ele>1202.75</ele>
        <time>2014-05-22T07:53:40Z</time>
      </trkpt>
      <trkpt lat="44.49297" lon="5.66377">
        <ele>1205.15</ele>
        <time>2014-05-22T07:53:56Z</time>
      </trkpt>
      <trkpt lat="44.49296" lon="5.66384">
        <ele>1207.55</ele>
        <time>2014-05-22T07:54:11Z</time>
      </trkpt>
      <trkpt lat="44.49299" lon="5.66385">
        <ele>1210.92</ele>
        <time>2014-05-22T07:54:25Z</time>
      </trkpt>
      <trkpt lat="44.49304" lon="5.6639">
        <ele>1213.8</ele>
        <time>2014-05-22T07:54:39Z</time>
      </trkpt>
      <trkpt lat="44.49311" lon="5.66393">
        <ele>1217.17</ele>
        <time>2014-05-22T07:54:54Z</time>
      </trkpt>
      <trkpt lat="44.49312" lon="5.66404">
        <ele>1219.09</ele>
        <time>2014-05-22T07:55:12Z</time>
      </trkpt>
      <trkpt lat="44.49308" lon="5.66417">
        <ele>1221.01</ele>
        <time>2014-05-22T07:55:27Z</time>
      </trkpt>
      <trkpt lat="44.49302" lon="5.6643">
        <ele>1222.45</ele>
        <time>2014-05-22T07:55:48Z</time>
      </trkpt>
      <trkpt lat="44.49302" lon="5.66438">
        <ele>1224.86</ele>
        <time>2014-05-22T07:55:59Z</time>
      </trkpt>
      <trkpt lat="44.493" lon="5.66447">
        <ele>1227.74</ele>
        <time>2014-05-22T07:56:12Z</time>
      </trkpt>
      <trkpt lat="44.49298" lon="5.66457">
        <ele>1230.14</ele>
        <time>2014-05-22T07:56:28Z</time>
      </trkpt>
      <trkpt lat="44.49298" lon="5.66465">
        <ele>1232.55</ele>
        <time>2014-05-22T07:56:47Z</time>
      </trkpt>
      <trkpt lat="44.49299" lon="5.66477">
        <ele>1235.43</ele>
        <time>2014-05-22T07:57:03Z</time>
      </trkpt>
      <trkpt lat="44.49292" lon="5.6649">
        <ele>1238.8</ele>
        <time>2014-05-22T07:57:19Z</time>
      </trkpt>
      <trkpt lat="44.49284" lon="5.66509">
        <ele>1240.24</ele>
        <time>2014-05-22T07:57:36Z</time>
      </trkpt>
      <trkpt lat="44.49283" lon="5.66514">
        <ele>1242.64</ele>
        <time>2014-05-22T07:57:45Z</time>
      </trkpt>
      <trkpt lat="44.49294" lon="5.6652">
        <ele>1242.64</ele>
        <time>2014-05-22T07:58:03Z</time>
      </trkpt>
      <trkpt lat="44.49306" lon="5.66519">
        <ele>1244.56</ele>
        <time>2014-05-22T07:58:20Z</time>
      </trkpt>
      <trkpt lat="44.49308" lon="5.6652">
        <ele>1245.04</ele>
        <time>2014-05-22T07:58:22Z</time>
      </trkpt>
      <trkpt lat="44.49324" lon="5.66525">
        <ele>1246.97</ele>
        <time>2014-05-22T07:58:39Z</time>
      </trkpt>
      <trkpt lat="44.49337" lon="5.66531">
        <ele>1247.45</ele>
        <time>2014-05-22T07:58:55Z</time>
      </trkpt>
      <trkpt lat="44.49352" lon="5.66538">
        <ele>1247.93</ele>
        <time>2014-05-22T07:59:13Z</time>
      </trkpt>
      <trkpt lat="44.4937" lon="5.66544">
        <ele>1249.85</ele>
        <time>2014-05-22T07:59:32Z</time>
      </trkpt>
      <trkpt lat="44.49384" lon="5.66552">
        <ele>1249.85</ele>
        <time>2014-05-22T07:59:48Z</time>
      </trkpt>
      <trkpt lat="44.49397" lon="5.66556">
        <ele>1251.77</ele>
        <time>2014-05-22T08:00:03Z</time>
      </trkpt>
      <trkpt lat="44.49413" lon="5.66559">
        <ele>1252.25</ele>
        <time>2014-05-22T08:00:21Z</time>
      </trkpt>
      <trkpt lat="44.49425" lon="5.66558">
        <ele>1253.22</ele>
        <time>2014-05-22T08:00:38Z</time>
      </trkpt>
      <trkpt lat="44.49444" lon="5.6656">
        <ele>1253.7</ele>
        <time>2014-05-22T08:00:55Z</time>
      </trkpt>
      <trkpt lat="44.49459" lon="5.66562">
        <ele>1254.18</ele>
        <time>2014-05-22T08:01:12Z</time>
      </trkpt>
      <trkpt lat="44.49474" lon="5.66563">
        <ele>1257.06</ele>
        <time>2014-05-22T08:01:28Z</time>
      </trkpt>
      <trkpt lat="44.49487" lon="5.66567">
        <ele>1258.5</ele>
        <time>2014-05-22T08:01:46Z</time>
      </trkpt>
      <trkpt lat="44.49489" lon="5.66566">
        <ele>1258.5</ele>
        <time>2014-05-22T08:02:09Z</time>
      </trkpt>
      <trkpt lat="44.49496" lon="5.66567">
        <ele>1259.46</ele>
        <time>2014-05-22T08:02:35Z</time>
      </trkpt>
      <trkpt lat="44.4951" lon="5.66571">
        <ele>1260.43</ele>
        <time>2014-05-22T08:02:50Z</time>
      </trkpt>
      <trkpt lat="44.49526" lon="5.66582">
        <ele>1260.91</ele>
        <time>2014-05-22T08:03:09Z</time>
      </trkpt>
      <trkpt lat="44.49535" lon="5.66596">
        <ele>1262.35</ele>
        <time>2014-05-22T08:03:25Z</time>
      </trkpt>
      <trkpt lat="44.49543" lon="5.66613">
        <ele>1264.27</ele>
        <time>2014-05-22T08:03:43Z</time>
      </trkpt>
      <trkpt lat="44.49554" lon="5.66627">
        <ele>1265.71</ele>
        <time>2014-05-22T08:04:00Z</time>
      </trkpt>
      <trkpt lat="44.4956" lon="5.66641">
        <ele>1268.12</ele>
        <time>2014-05-22T08:04:15Z</time>
      </trkpt>
      <trkpt lat="44.49567" lon="5.66651">
        <ele>1269.08</ele>
        <time>2014-05-22T08:04:27Z</time>
      </trkpt>
      <trkpt lat="44.49575" lon="5.66665">
        <ele>1270.04</ele>
        <time>2014-05-22T08:04:43Z</time>
      </trkpt>
      <trkpt lat="44.49584" lon="5.66674">
        <ele>1271.48</ele>
        <time>2014-05-22T08:04:56Z</time>
      </trkpt>
      <trkpt lat="44.49595" lon="5.66673">
        <ele>1272.44</ele>
        <time>2014-05-22T08:05:12Z</time>
      </trkpt>
      <trkpt lat="44.49608" lon="5.66663">
        <ele>1273.4</ele>
        <time>2014-05-22T08:05:30Z</time>
      </trkpt>
      <trkpt lat="44.49623" lon="5.66644">
        <ele>1274.85</ele>
        <time>2014-05-22T08:05:52Z</time>
      </trkpt>
      <trkpt lat="44.49628" lon="5.66639">
        <ele>1274.85</ele>
        <time>2014-05-22T08:05:57Z</time>
      </trkpt>
      <trkpt lat="44.4964" lon="5.66625">
        <ele>1275.81</ele>
        <time>2014-05-22T08:06:13Z</time>
      </trkpt>
      <trkpt lat="44.49653" lon="5.66611">
        <ele>1275.81</ele>
        <time>2014-05-22T08:06:30Z</time>
      </trkpt>
      <trkpt lat="44.49666" lon="5.666">
        <ele>1276.29</ele>
        <time>2014-05-22T08:06:45Z</time>
      </trkpt>
      <trkpt lat="44.49677" lon="5.66592">
        <ele>1277.25</ele>
        <time>2014-05-22T08:06:59Z</time>
      </trkpt>
      <trkpt lat="44.49689" lon="5.6658">
        <ele>1279.65</ele>
        <time>2014-05-22T08:07:16Z</time>
      </trkpt>
      <trkpt lat="44.49704" lon="5.66572">
        <ele>1280.61</ele>
        <time>2014-05-22T08:07:33Z</time>
      </trkpt>
      <trkpt lat="44.49716" lon="5.66563">
        <ele>1282.54</ele>
        <time>2014-05-22T08:07:49Z</time>
      </trkpt>
      <trkpt lat="44.49732" lon="5.66554">
        <ele>1282.06</ele>
        <time>2014-05-22T08:08:07Z</time>
      </trkpt>
      <trkpt lat="44.49742" lon="5.66545">
        <ele>1283.5</ele>
        <time>2014-05-22T08:08:22Z</time>
      </trkpt>
      <trkpt lat="44.49754" lon="5.66537">
        <ele>1285.42</ele>
        <time>2014-05-22T08:08:38Z</time>
      </trkpt>
      <trkpt lat="44.49766" lon="5.66532">
        <ele>1287.34</ele>
        <time>2014-05-22T08:08:53Z</time>
      </trkpt>
      <trkpt lat="44.49773" lon="5.66542">
        <ele>1288.78</ele>
        <time>2014-05-22T08:09:08Z</time>
      </trkpt>
      <trkpt lat="44.49764" lon="5.66559">
        <ele>1290.23</ele>
        <time>2014-05-22T08:09:24Z</time>
      </trkpt>
      <trkpt lat="44.49758" lon="5.66566">
        <ele>1290.23</ele>
        <time>2014-05-22T08:09:31Z</time>
      </trkpt>
      <trkpt lat="44.49748" lon="5.66575">
        <ele>1291.67</ele>
        <time>2014-05-22T08:09:43Z</time>
      </trkpt>
      <trkpt lat="44.49734" lon="5.66588">
        <ele>1291.19</ele>
        <time>2014-05-22T08:10:00Z</time>
      </trkpt>
      <trkpt lat="44.49723" lon="5.66601">
        <ele>1291.19</ele>
        <time>2014-05-22T08:10:17Z</time>
      </trkpt>
      <trkpt lat="44.49713" lon="5.66619">
        <ele>1292.63</ele>
        <time>2014-05-22T08:10:32Z</time>
      </trkpt>
      <trkpt lat="44.49702" lon="5.66632">
        <ele>1293.11</ele>
        <time>2014-05-22T08:10:46Z</time>
      </trkpt>
      <trkpt lat="44.49693" lon="5.66645">
        <ele>1292.15</ele>
        <time>2014-05-22T08:11:00Z</time>
      </trkpt>
      <trkpt lat="44.49685" lon="5.66655">
        <ele>1294.07</ele>
        <time>2014-05-22T08:11:13Z</time>
      </trkpt>
      <trkpt lat="44.49677" lon="5.66672">
        <ele>1296.48</ele>
        <time>2014-05-22T08:11:29Z</time>
      </trkpt>
      <trkpt lat="44.49668" lon="5.66687">
        <ele>1296.96</ele>
        <time>2014-05-22T08:11:43Z</time>
      </trkpt>
      <trkpt lat="44.4966" lon="5.66704">
        <ele>1298.4</ele>
        <time>2014-05-22T08:11:59Z</time>
      </trkpt>
      <trkpt lat="44.49655" lon="5.66722">
        <ele>1299.36</ele>
        <time>2014-05-22T08:12:15Z</time>
      </trkpt>
      <trkpt lat="44.49649" lon="5.66744">
        <ele>1300.32</ele>
        <time>2014-05-22T08:12:34Z</time>
      </trkpt>
      <trkpt lat="44.49635" lon="5.6676">
        <ele>1302.24</ele>
        <time>2014-05-22T08:12:53Z</time>
      </trkpt>
      <trkpt lat="44.49621" lon="5.66775">
        <ele>1303.69</ele>
        <time>2014-05-22T08:13:10Z</time>
      </trkpt>
      <trkpt lat="44.49613" lon="5.66785">
        <ele>1304.65</ele>
        <time>2014-05-22T08:13:23Z</time>
      </trkpt>
      <trkpt lat="44.49599" lon="5.66783">
        <ele>1305.61</ele>
        <time>2014-05-22T08:13:38Z</time>
      </trkpt>
      <trkpt lat="44.49582" lon="5.66783">
        <ele>1307.05</ele>
        <time>2014-05-22T08:13:54Z</time>
      </trkpt>
      <trkpt lat="44.4957" lon="5.66781">
        <ele>1308.49</ele>
        <time>2014-05-22T08:14:10Z</time>
      </trkpt>
      <trkpt lat="44.49566" lon="5.66781">
        <ele>1308.49</ele>
        <time>2014-05-22T08:14:25Z</time>
      </trkpt>
      <trkpt lat="44.49562" lon="5.66783">
        <ele>1308.97</ele>
        <time>2014-05-22T08:14:40Z</time>
      </trkpt>
      <trkpt lat="44.49558" lon="5.66785">
        <ele>1310.41</ele>
        <time>2014-05-22T08:14:59Z</time>
      </trkpt>
      <trkpt lat="44.49564" lon="5.6679">
        <ele>1312.34</ele>
        <time>2014-05-22T08:15:16Z</time>
      </trkpt>
      <trkpt lat="44.49565" lon="5.66798">
        <ele>1314.26</ele>
        <time>2014-05-22T08:15:34Z</time>
      </trkpt>
      <trkpt lat="44.49566" lon="5.66803">
        <ele>1317.14</ele>
        <time>2014-05-22T08:15:52Z</time>
      </trkpt>
      <trkpt lat="44.49567" lon="5.66807">
        <ele>1318.1</ele>
        <time>2014-05-22T08:16:09Z</time>
      </trkpt>
      <trkpt lat="44.4957" lon="5.66812">
        <ele>1320.51</ele>
        <time>2014-05-22T08:16:24Z</time>
      </trkpt>
      <trkpt lat="44.49582" lon="5.66815">
        <ele>1320.51</ele>
        <time>2014-05-22T08:16:37Z</time>
      </trkpt>
      <trkpt lat="44.49599" lon="5.66825">
        <ele>1323.39</ele>
        <time>2014-05-22T08:16:58Z</time>
      </trkpt>
      <trkpt lat="44.4961" lon="5.66829">
        <ele>1325.8</ele>
        <time>2014-05-22T08:17:15Z</time>
      </trkpt>
      <trkpt lat="44.49618" lon="5.66831">
        <ele>1329.16</ele>
        <time>2014-05-22T08:17:31Z</time>
      </trkpt>
      <trkpt lat="44.49625" lon="5.66833">
        <ele>1330.6</ele>
        <time>2014-05-22T08:17:47Z</time>
      </trkpt>
      <trkpt lat="44.49631" lon="5.66836">
        <ele>1333.01</ele>
        <time>2014-05-22T08:18:02Z</time>
      </trkpt>
      <trkpt lat="44.49641" lon="5.6684">
        <ele>1335.89</ele>
        <time>2014-05-22T08:18:21Z</time>
      </trkpt>
      <trkpt lat="44.49653" lon="5.66842">
        <ele>1338.77</ele>
        <time>2014-05-22T08:18:40Z</time>
      </trkpt>
      <trkpt lat="44.49671" lon="5.66839">
        <ele>1339.73</ele>
        <time>2014-05-22T08:19:01Z</time>
      </trkpt>
      <trkpt lat="44.49683" lon="5.66834">
        <ele>1341.66</ele>
        <time>2014-05-22T08:19:18Z</time>
      </trkpt>
      <trkpt lat="44.49691" lon="5.66834">
        <ele>1344.06</ele>
        <time>2014-05-22T08:19:34Z</time>
      </trkpt>
      <trkpt lat="44.49705" lon="5.66835">
        <ele>1347.91</ele>
        <time>2014-05-22T08:19:54Z</time>
      </trkpt>
      <trkpt lat="44.49716" lon="5.66829">
        <ele>1345.02</ele>
        <time>2014-05-22T08:20:11Z</time>
      </trkpt>
      <trkpt lat="44.49722" lon="5.66821">
        <ele>1342.62</ele>
        <time>2014-05-22T08:20:26Z</time>
      </trkpt>
      <trkpt lat="44.49735" lon="5.66813">
        <ele>1340.22</ele>
        <time>2014-05-22T08:20:45Z</time>
      </trkpt>
      <trkpt lat="44.49747" lon="5.66811">
        <ele>1341.18</ele>
        <time>2014-05-22T08:21:04Z</time>
      </trkpt>
      <trkpt lat="44.4975" lon="5.66814">
        <ele>1343.1</ele>
        <time>2014-05-22T08:21:20Z</time>
      </trkpt>
      <trkpt lat="44.49756" lon="5.6681">
        <ele>1344.54</ele>
        <time>2014-05-22T08:21:40Z</time>
      </trkpt>
      <trkpt lat="44.49757" lon="5.66798">
        <ele>1341.18</ele>
        <time>2014-05-22T08:21:59Z</time>
      </trkpt>
      <trkpt lat="44.49763" lon="5.66791">
        <ele>1339.73</ele>
        <time>2014-05-22T08:22:15Z</time>
      </trkpt>
      <trkpt lat="44.49768" lon="5.66779">
        <ele>1337.81</ele>
        <time>2014-05-22T08:22:31Z</time>
      </trkpt>
      <trkpt lat="44.49771" lon="5.66763">
        <ele>1335.89</ele>
        <time>2014-05-22T08:22:49Z</time>
      </trkpt>
      <trkpt lat="44.49778" lon="5.66751">
        <ele>1334.93</ele>
        <time>2014-05-22T08:23:03Z</time>
      </trkpt>
      <trkpt lat="44.49786" lon="5.66741">
        <ele>1336.85</ele>
        <time>2014-05-22T08:23:19Z</time>
      </trkpt>
      <trkpt lat="44.49797" lon="5.66725">
        <ele>1337.33</ele>
        <time>2014-05-22T08:23:35Z</time>
      </trkpt>
      <trkpt lat="44.49808" lon="5.66703">
        <ele>1338.77</ele>
        <time>2014-05-22T08:23:55Z</time>
      </trkpt>
      <trkpt lat="44.49809" lon="5.6669">
        <ele>1339.25</ele>
        <time>2014-05-22T08:24:09Z</time>
      </trkpt>
      <trkpt lat="44.49817" lon="5.66687">
        <ele>1341.66</ele>
        <time>2014-05-22T08:24:27Z</time>
      </trkpt>
      <trkpt lat="44.49823" lon="5.66688">
        <ele>1343.1</ele>
        <time>2014-05-22T08:24:44Z</time>
      </trkpt>
      <trkpt lat="44.49826" lon="5.66686">
        <ele>1345.5</ele>
        <time>2014-05-22T08:25:00Z</time>
      </trkpt>
      <trkpt lat="44.49832" lon="5.66686">
        <ele>1346.46</ele>
        <time>2014-05-22T08:25:21Z</time>
      </trkpt>
      <trkpt lat="44.49835" lon="5.66696">
        <ele>1349.35</ele>
        <time>2014-05-22T08:25:40Z</time>
      </trkpt>
      <trkpt lat="44.49834" lon="5.66702">
        <ele>1351.27</ele>
        <time>2014-05-22T08:25:59Z</time>
      </trkpt>
      <trkpt lat="44.49834" lon="5.66707">
        <ele>1353.19</ele>
        <time>2014-05-22T08:26:18Z</time>
      </trkpt>
      <trkpt lat="44.49836" lon="5.66702">
        <ele>1355.6</ele>
        <time>2014-05-22T08:26:33Z</time>
      </trkpt>
      <trkpt lat="44.49843" lon="5.66702">
        <ele>1358.96</ele>
        <time>2014-05-22T08:26:51Z</time>
      </trkpt>
      <trkpt lat="44.49848" lon="5.66696">
        <ele>1359.92</ele>
        <time>2014-05-22T08:27:08Z</time>
      </trkpt>
      <trkpt lat="44.49858" lon="5.66692">
        <ele>1362.33</ele>
        <time>2014-05-22T08:27:28Z</time>
      </trkpt>
      <trkpt lat="44.49866" lon="5.66692">
        <ele>1364.73</ele>
        <time>2014-05-22T08:27:44Z</time>
      </trkpt>
      <trkpt lat="44.49872" lon="5.66691">
        <ele>1368.09</ele>
        <time>2014-05-22T08:27:58Z</time>
      </trkpt>
      <trkpt lat="44.4988" lon="5.66682">
        <ele>1368.57</ele>
        <time>2014-05-22T08:28:15Z</time>
      </trkpt>
      <trkpt lat="44.49889" lon="5.66684">
        <ele>1370.5</ele>
        <time>2014-05-22T08:28:31Z</time>
      </trkpt>
      <trkpt lat="44.49896" lon="5.66683">
        <ele>1373.38</ele>
        <time>2014-05-22T08:28:49Z</time>
      </trkpt>
      <trkpt lat="44.49905" lon="5.66683">
        <ele>1375.78</ele>
        <time>2014-05-22T08:29:04Z</time>
      </trkpt>
      <trkpt lat="44.49913" lon="5.66673">
        <ele>1377.23</ele>
        <time>2014-05-22T08:29:19Z</time>
      </trkpt>
      <trkpt lat="44.49927" lon="5.66664">
        <ele>1378.67</ele>
        <time>2014-05-22T08:29:36Z</time>
      </trkpt>
      <trkpt lat="44.49938" lon="5.6666">
        <ele>1380.59</ele>
        <time>2014-05-22T08:29:53Z</time>
      </trkpt>
      <trkpt lat="44.49946" lon="5.66656">
        <ele>1382.51</ele>
        <time>2014-05-22T08:30:09Z</time>
      </trkpt>
      <trkpt lat="44.49963" lon="5.66655">
        <ele>1385.4</ele>
        <time>2014-05-22T08:30:31Z</time>
      </trkpt>
      <trkpt lat="44.49973" lon="5.66655">
        <ele>1386.84</ele>
        <time>2014-05-22T08:30:51Z</time>
      </trkpt>
      <trkpt lat="44.49975" lon="5.66653">
        <ele>1386.84</ele>
        <time>2014-05-22T08:31:02Z</time>
      </trkpt>
      <trkpt lat="44.49975" lon="5.66659">
        <ele>1386.36</ele>
        <time>2014-05-22T08:31:20Z</time>
      </trkpt>
      <trkpt lat="44.49973" lon="5.66652">
        <ele>1386.36</ele>
        <time>2014-05-22T08:31:47Z</time>
      </trkpt>
      <trkpt lat="44.49973" lon="5.66654">
        <ele>1386.84</ele>
        <time>2014-05-22T08:32:21Z</time>
      </trkpt>
      <trkpt lat="44.49974" lon="5.66657">
        <ele>1386.84</ele>
        <time>2014-05-22T08:33:07Z</time>
      </trkpt>
      <trkpt lat="44.49975" lon="5.66653">
        <ele>1387.32</ele>
        <time>2014-05-22T08:33:36Z</time>
      </trkpt>
      <trkpt lat="44.49973" lon="5.66656">
        <ele>1387.8</ele>
        <time>2014-05-22T08:34:10Z</time>
      </trkpt>
      <trkpt lat="44.49974" lon="5.66657">
        <ele>1388.28</ele>
        <time>2014-05-22T08:34:45Z</time>
      </trkpt>
      <trkpt lat="44.49973" lon="5.66654">
        <ele>1388.28</ele>
        <time>2014-05-22T08:35:10Z</time>
      </trkpt>
      <trkpt lat="44.49973" lon="5.66653">
        <ele>1388.28</ele>
        <time>2014-05-22T08:35:41Z</time>
      </trkpt>
      <trkpt lat="44.49971" lon="5.66652">
        <ele>1388.28</ele>
        <time>2014-05-22T08:36:06Z</time>
      </trkpt>
      <trkpt lat="44.49974" lon="5.66656">
        <ele>1388.28</ele>
        <time>2014-05-22T08:36:31Z</time>
      </trkpt>
      <trkpt lat="44.49975" lon="5.66655">
        <ele>1388.76</ele>
        <time>2014-05-22T08:37:03Z</time>
      </trkpt>
      <trkpt lat="44.49974" lon="5.66656">
        <ele>1388.76</ele>
        <time>2014-05-22T08:37:37Z</time>
      </trkpt>
      <trkpt lat="44.49975" lon="5.66656">
        <ele>1388.76</ele>
        <time>2014-05-22T08:38:05Z</time>
      </trkpt>
      <trkpt lat="44.49974" lon="5.66658">
        <ele>1389.72</ele>
        <time>2014-05-22T08:38:40Z</time>
      </trkpt>
      <trkpt lat="44.49973" lon="5.66663">
        <ele>1389.72</ele>
        <time>2014-05-22T08:39:04Z</time>
      </trkpt>
      <trkpt lat="44.49975" lon="5.66657">
        <ele>1390.68</ele>
        <time>2014-05-22T08:39:46Z</time>
      </trkpt>
      <trkpt lat="44.49974" lon="5.66654">
        <ele>1389.72</ele>
        <time>2014-05-22T08:40:13Z</time>
      </trkpt>
      <trkpt lat="44.49976" lon="5.66653">
        <ele>1391.17</ele>
        <time>2014-05-22T08:40:34Z</time>
      </trkpt>
      <trkpt lat="44.49975" lon="5.66657">
        <ele>1391.65</ele>
        <time>2014-05-22T08:41:02Z</time>
      </trkpt>
      <trkpt lat="44.49981" lon="5.66644">
        <ele>1392.13</ele>
        <time>2014-05-22T08:41:22Z</time>
      </trkpt>
      <trkpt lat="44.4999" lon="5.66633">
        <ele>1393.57</ele>
        <time>2014-05-22T08:41:39Z</time>
      </trkpt>
      <trkpt lat="44.50004" lon="5.6663">
        <ele>1395.49</ele>
        <time>2014-05-22T08:41:58Z</time>
      </trkpt>
      <trkpt lat="44.50015" lon="5.66628">
        <ele>1397.41</ele>
        <time>2014-05-22T08:42:18Z</time>
      </trkpt>
      <trkpt lat="44.50026" lon="5.66624">
        <ele>1399.34</ele>
        <time>2014-05-22T08:42:33Z</time>
      </trkpt>
      <trkpt lat="44.50034" lon="5.66618">
        <ele>1400.78</ele>
        <time>2014-05-22T08:42:52Z</time>
      </trkpt>
      <trkpt lat="44.50043" lon="5.66611">
        <ele>1404.14</ele>
        <time>2014-05-22T08:43:06Z</time>
      </trkpt>
      <trkpt lat="44.50054" lon="5.66605">
        <ele>1405.1</ele>
        <time>2014-05-22T08:43:23Z</time>
      </trkpt>
      <trkpt lat="44.5007" lon="5.66599">
        <ele>1406.07</ele>
        <time>2014-05-22T08:43:39Z</time>
      </trkpt>
      <trkpt lat="44.50083" lon="5.6659">
        <ele>1406.07</ele>
        <time>2014-05-22T08:43:55Z</time>
      </trkpt>
      <trkpt lat="44.50093" lon="5.66583">
        <ele>1404.62</ele>
        <time>2014-05-22T08:44:09Z</time>
      </trkpt>
      <trkpt lat="44.50095" lon="5.66581">
        <ele>1404.62</ele>
        <time>2014-05-22T08:44:11Z</time>
      </trkpt>
      <trkpt lat="44.50108" lon="5.66568">
        <ele>1405.58</ele>
        <time>2014-05-22T08:44:26Z</time>
      </trkpt>
      <trkpt lat="44.50117" lon="5.66553">
        <ele>1405.1</ele>
        <time>2014-05-22T08:44:41Z</time>
      </trkpt>
      <trkpt lat="44.50128" lon="5.66546">
        <ele>1406.55</ele>
        <time>2014-05-22T08:44:55Z</time>
      </trkpt>
      <trkpt lat="44.50136" lon="5.66534">
        <ele>1408.47</ele>
        <time>2014-05-22T08:45:10Z</time>
      </trkpt>
      <trkpt lat="44.50145" lon="5.66522">
        <ele>1409.43</ele>
        <time>2014-05-22T08:45:23Z</time>
      </trkpt>
      <trkpt lat="44.50155" lon="5.66514">
        <ele>1410.87</ele>
        <time>2014-05-22T08:45:36Z</time>
      </trkpt>
      <trkpt lat="44.50164" lon="5.66504">
        <ele>1412.79</ele>
        <time>2014-05-22T08:45:53Z</time>
      </trkpt>
      <trkpt lat="44.50172" lon="5.66498">
        <ele>1414.72</ele>
        <time>2014-05-22T08:46:08Z</time>
      </trkpt>
      <trkpt lat="44.50176" lon="5.66491">
        <ele>1415.68</ele>
        <time>2014-05-22T08:46:26Z</time>
      </trkpt>
      <trkpt lat="44.50189" lon="5.66491">
        <ele>1418.08</ele>
        <time>2014-05-22T08:46:45Z</time>
      </trkpt>
      <trkpt lat="44.50189" lon="5.66479">
        <ele>1418.56</ele>
        <time>2014-05-22T08:47:10Z</time>
      </trkpt>
      <trkpt lat="44.50196" lon="5.66468">
        <ele>1420</ele>
        <time>2014-05-22T08:47:31Z</time>
      </trkpt>
      <trkpt lat="44.50185" lon="5.66463">
        <ele>1420</ele>
        <time>2014-05-22T08:47:50Z</time>
      </trkpt>
      <trkpt lat="44.50183" lon="5.66451">
        <ele>1418.08</ele>
        <time>2014-05-22T08:48:08Z</time>
      </trkpt>
      <trkpt lat="44.50178" lon="5.66434">
        <ele>1415.2</ele>
        <time>2014-05-22T08:48:26Z</time>
      </trkpt>
      <trkpt lat="44.50177" lon="5.6642">
        <ele>1412.79</ele>
        <time>2014-05-22T08:48:42Z</time>
      </trkpt>
      <trkpt lat="44.50172" lon="5.664">
        <ele>1409.43</ele>
        <time>2014-05-22T08:48:58Z</time>
      </trkpt>
      <trkpt lat="44.5017" lon="5.66378">
        <ele>1407.03</ele>
        <time>2014-05-22T08:49:17Z</time>
      </trkpt>
      <trkpt lat="44.50164" lon="5.66349">
        <ele>1407.51</ele>
        <time>2014-05-22T08:49:34Z</time>
      </trkpt>
      <trkpt lat="44.50163" lon="5.66348">
        <ele>1407.99</ele>
        <time>2014-05-22T08:49:35Z</time>
      </trkpt>
      <trkpt lat="44.50154" lon="5.66329">
        <ele>1410.87</ele>
        <time>2014-05-22T08:49:53Z</time>
      </trkpt>
      <trkpt lat="44.50149" lon="5.66318">
        <ele>1413.76</ele>
        <time>2014-05-22T08:50:11Z</time>
      </trkpt>
      <trkpt lat="44.50145" lon="5.66311">
        <ele>1416.16</ele>
        <time>2014-05-22T08:50:26Z</time>
      </trkpt>
      <trkpt lat="44.5014" lon="5.66304">
        <ele>1419.04</ele>
        <time>2014-05-22T08:50:42Z</time>
      </trkpt>
      <trkpt lat="44.50134" lon="5.66297">
        <ele>1421.93</ele>
        <time>2014-05-22T08:50:56Z</time>
      </trkpt>
      <trkpt lat="44.50139" lon="5.66267">
        <ele>1423.37</ele>
        <time>2014-05-22T08:51:15Z</time>
      </trkpt>
      <trkpt lat="44.50144" lon="5.66249">
        <ele>1424.81</ele>
        <time>2014-05-22T08:51:31Z</time>
      </trkpt>
      <trkpt lat="44.50156" lon="5.66232">
        <ele>1425.77</ele>
        <time>2014-05-22T08:51:49Z</time>
      </trkpt>
      <trkpt lat="44.50167" lon="5.66213">
        <ele>1426.25</ele>
        <time>2014-05-22T08:52:05Z</time>
      </trkpt>
      <trkpt lat="44.50175" lon="5.66196">
        <ele>1426.25</ele>
        <time>2014-05-22T08:52:20Z</time>
      </trkpt>
      <trkpt lat="44.50184" lon="5.66182">
        <ele>1423.85</ele>
        <time>2014-05-22T08:52:33Z</time>
      </trkpt>
      <trkpt lat="44.50194" lon="5.66162">
        <ele>1422.41</ele>
        <time>2014-05-22T08:52:49Z</time>
      </trkpt>
      <trkpt lat="44.50201" lon="5.66137">
        <ele>1421.45</ele>
        <time>2014-05-22T08:53:07Z</time>
      </trkpt>
      <trkpt lat="44.50206" lon="5.66116">
        <ele>1421.45</ele>
        <time>2014-05-22T08:53:21Z</time>
      </trkpt>
      <trkpt lat="44.50213" lon="5.66093">
        <ele>1419.04</ele>
        <time>2014-05-22T08:53:36Z</time>
      </trkpt>
      <trkpt lat="44.5022" lon="5.66075">
        <ele>1417.12</ele>
        <time>2014-05-22T08:53:51Z</time>
      </trkpt>
      <trkpt lat="44.50222" lon="5.66052">
        <ele>1415.2</ele>
        <time>2014-05-22T08:54:05Z</time>
      </trkpt>
      <trkpt lat="44.50222" lon="5.66049">
        <ele>1414.72</ele>
        <time>2014-05-22T08:54:07Z</time>
      </trkpt>
      <trkpt lat="44.50223" lon="5.66031">
        <ele>1411.35</ele>
        <time>2014-05-22T08:54:21Z</time>
      </trkpt>
      <trkpt lat="44.50224" lon="5.6601">
        <ele>1408.47</ele>
        <time>2014-05-22T08:54:36Z</time>
      </trkpt>
      <trkpt lat="44.50226" lon="5.65996">
        <ele>1405.58</ele>
        <time>2014-05-22T08:54:49Z</time>
      </trkpt>
      <trkpt lat="44.5023" lon="5.65964">
        <ele>1404.62</ele>
        <time>2014-05-22T08:55:06Z</time>
      </trkpt>
      <trkpt lat="44.50233" lon="5.65935">
        <ele>1407.03</ele>
        <time>2014-05-22T08:55:26Z</time>
      </trkpt>
      <trkpt lat="44.50231" lon="5.65909">
        <ele>1406.55</ele>
        <time>2014-05-22T08:55:49Z</time>
      </trkpt>
      <trkpt lat="44.50229" lon="5.65886">
        <ele>1405.1</ele>
        <time>2014-05-22T08:56:07Z</time>
      </trkpt>
      <trkpt lat="44.50229" lon="5.65858">
        <ele>1403.66</ele>
        <time>2014-05-22T08:56:26Z</time>
      </trkpt>
      <trkpt lat="44.50233" lon="5.65834">
        <ele>1401.74</ele>
        <time>2014-05-22T08:56:43Z</time>
      </trkpt>
      <trkpt lat="44.50233" lon="5.65811">
        <ele>1398.86</ele>
        <time>2014-05-22T08:57:02Z</time>
      </trkpt>
      <trkpt lat="44.50232" lon="5.65793">
        <ele>1395.49</ele>
        <time>2014-05-22T08:57:16Z</time>
      </trkpt>
      <trkpt lat="44.50238" lon="5.65773">
        <ele>1392.61</ele>
        <time>2014-05-22T08:57:34Z</time>
      </trkpt>
      <trkpt lat="44.50237" lon="5.6576">
        <ele>1391.17</ele>
        <time>2014-05-22T08:57:48Z</time>
      </trkpt>
      <trkpt lat="44.50237" lon="5.65742">
        <ele>1388.28</ele>
        <time>2014-05-22T08:58:06Z</time>
      </trkpt>
      <trkpt lat="44.50237" lon="5.65738">
        <ele>1386.84</ele>
        <time>2014-05-22T08:58:12Z</time>
      </trkpt>
      <trkpt lat="44.50234" lon="5.65723">
        <ele>1383.47</ele>
        <time>2014-05-22T08:58:26Z</time>
      </trkpt>
      <trkpt lat="44.50233" lon="5.65709">
        <ele>1381.55</ele>
        <time>2014-05-22T08:58:35Z</time>
      </trkpt>
      <trkpt lat="44.50238" lon="5.65703">
        <ele>1380.11</ele>
        <time>2014-05-22T08:58:54Z</time>
      </trkpt>
      <trkpt lat="44.50236" lon="5.65696">
        <ele>1379.63</ele>
        <time>2014-05-22T08:59:13Z</time>
      </trkpt>
      <trkpt lat="44.50231" lon="5.6569">
        <ele>1378.19</ele>
        <time>2014-05-22T08:59:34Z</time>
      </trkpt>
      <trkpt lat="44.50232" lon="5.65691">
        <ele>1379.15</ele>
        <time>2014-05-22T08:59:56Z</time>
      </trkpt>
      <trkpt lat="44.50227" lon="5.65678">
        <ele>1378.19</ele>
        <time>2014-05-22T09:00:18Z</time>
      </trkpt>
      <trkpt lat="44.50221" lon="5.65673">
        <ele>1375.78</ele>
        <time>2014-05-22T09:00:39Z</time>
      </trkpt>
      <trkpt lat="44.50222" lon="5.65669">
        <ele>1373.38</ele>
        <time>2014-05-22T09:00:54Z</time>
      </trkpt>
      <trkpt lat="44.50218" lon="5.65668">
        <ele>1370.5</ele>
        <time>2014-05-22T09:01:07Z</time>
      </trkpt>
      <trkpt lat="44.50217" lon="5.65663">
        <ele>1368.09</ele>
        <time>2014-05-22T09:01:19Z</time>
      </trkpt>
      <trkpt lat="44.50213" lon="5.65655">
        <ele>1365.21</ele>
        <time>2014-05-22T09:01:37Z</time>
      </trkpt>
      <trkpt lat="44.5021" lon="5.65652">
        <ele>1363.77</ele>
        <time>2014-05-22T09:01:54Z</time>
      </trkpt>
      <trkpt lat="44.50205" lon="5.65648">
        <ele>1360.4</ele>
        <time>2014-05-22T09:02:06Z</time>
      </trkpt>
      <trkpt lat="44.50203" lon="5.6564">
        <ele>1358.48</ele>
        <time>2014-05-22T09:02:25Z</time>
      </trkpt>
      <trkpt lat="44.50198" lon="5.65636">
        <ele>1356.56</ele>
        <time>2014-05-22T09:02:43Z</time>
      </trkpt>
      <trkpt lat="44.50198" lon="5.6563">
        <ele>1355.12</ele>
        <time>2014-05-22T09:02:58Z</time>
      </trkpt>
      <trkpt lat="44.50195" lon="5.65624">
        <ele>1352.71</ele>
        <time>2014-05-22T09:03:13Z</time>
      </trkpt>
      <trkpt lat="44.50192" lon="5.65616">
        <ele>1350.31</ele>
        <time>2014-05-22T09:03:32Z</time>
      </trkpt>
      <trkpt lat="44.50188" lon="5.65611">
        <ele>1349.35</ele>
        <time>2014-05-22T09:03:50Z</time>
      </trkpt>
      <trkpt lat="44.50188" lon="5.65607">
        <ele>1346.46</ele>
        <time>2014-05-22T09:04:04Z</time>
      </trkpt>
      <trkpt lat="44.50184" lon="5.65609">
        <ele>1344.06</ele>
        <time>2014-05-22T09:04:21Z</time>
      </trkpt>
      <trkpt lat="44.5018" lon="5.656">
        <ele>1341.18</ele>
        <time>2014-05-22T09:04:39Z</time>
      </trkpt>
      <trkpt lat="44.50179" lon="5.65594">
        <ele>1338.77</ele>
        <time>2014-05-22T09:04:52Z</time>
      </trkpt>
      <trkpt lat="44.50177" lon="5.65587">
        <ele>1336.37</ele>
        <time>2014-05-22T09:05:08Z</time>
      </trkpt>
      <trkpt lat="44.50172" lon="5.6558">
        <ele>1333.01</ele>
        <time>2014-05-22T09:05:24Z</time>
      </trkpt>
      <trkpt lat="44.50168" lon="5.65576">
        <ele>1330.12</ele>
        <time>2014-05-22T09:05:39Z</time>
      </trkpt>
      <trkpt lat="44.50162" lon="5.65571">
        <ele>1327.24</ele>
        <time>2014-05-22T09:05:56Z</time>
      </trkpt>
      <trkpt lat="44.50161" lon="5.65562">
        <ele>1324.83</ele>
        <time>2014-05-22T09:06:13Z</time>
      </trkpt>
      <trkpt lat="44.50159" lon="5.65554">
        <ele>1321.95</ele>
        <time>2014-05-22T09:06:35Z</time>
      </trkpt>
      <trkpt lat="44.50153" lon="5.65549">
        <ele>1319.55</ele>
        <time>2014-05-22T09:06:53Z</time>
      </trkpt>
      <trkpt lat="44.50151" lon="5.65539">
        <ele>1316.18</ele>
        <time>2014-05-22T09:07:08Z</time>
      </trkpt>
      <trkpt lat="44.50144" lon="5.65537">
        <ele>1313.3</ele>
        <time>2014-05-22T09:07:21Z</time>
      </trkpt>
      <trkpt lat="44.50144" lon="5.65537">
        <ele>1312.82</ele>
        <time>2014-05-22T09:07:22Z</time>
      </trkpt>
      <trkpt lat="44.50142" lon="5.65528">
        <ele>1310.41</ele>
        <time>2014-05-22T09:07:41Z</time>
      </trkpt>
      <trkpt lat="44.50141" lon="5.65521">
        <ele>1307.53</ele>
        <time>2014-05-22T09:07:54Z</time>
      </trkpt>
      <trkpt lat="44.50139" lon="5.65516">
        <ele>1304.17</ele>
        <time>2014-05-22T09:08:08Z</time>
      </trkpt>
      <trkpt lat="44.50135" lon="5.65506">
        <ele>1300.8</ele>
        <time>2014-05-22T09:08:22Z</time>
      </trkpt>
      <trkpt lat="44.50129" lon="5.65503">
        <ele>1297.92</ele>
        <time>2014-05-22T09:08:32Z</time>
      </trkpt>
      <trkpt lat="44.50124" lon="5.655">
        <ele>1294.55</ele>
        <time>2014-05-22T09:08:43Z</time>
      </trkpt>
      <trkpt lat="44.50116" lon="5.6549">
        <ele>1291.67</ele>
        <time>2014-05-22T09:08:56Z</time>
      </trkpt>
      <trkpt lat="44.5011" lon="5.65481">
        <ele>1288.3</ele>
        <time>2014-05-22T09:09:09Z</time>
      </trkpt>
      <trkpt lat="44.50105" lon="5.65468">
        <ele>1285.42</ele>
        <time>2014-05-22T09:09:25Z</time>
      </trkpt>
      <trkpt lat="44.50096" lon="5.65464">
        <ele>1282.06</ele>
        <time>2014-05-22T09:09:40Z</time>
      </trkpt>
      <trkpt lat="44.50091" lon="5.65454">
        <ele>1279.17</ele>
        <time>2014-05-22T09:09:55Z</time>
      </trkpt>
      <trkpt lat="44.50085" lon="5.65434">
        <ele>1275.81</ele>
        <time>2014-05-22T09:10:12Z</time>
      </trkpt>
      <trkpt lat="44.50078" lon="5.65425">
        <ele>1273.4</ele>
        <time>2014-05-22T09:10:28Z</time>
      </trkpt>
      <trkpt lat="44.50069" lon="5.65409">
        <ele>1271.96</ele>
        <time>2014-05-22T09:10:46Z</time>
      </trkpt>
      <trkpt lat="44.50068" lon="5.65409">
        <ele>1271.96</ele>
        <time>2014-05-22T09:11:11Z</time>
      </trkpt>
      <trkpt lat="44.50062" lon="5.65402">
        <ele>1271</ele>
        <time>2014-05-22T09:11:26Z</time>
      </trkpt>
      <trkpt lat="44.50066" lon="5.65402">
        <ele>1271.48</ele>
        <time>2014-05-22T09:11:42Z</time>
      </trkpt>
      <trkpt lat="44.50071" lon="5.65404">
        <ele>1271.96</ele>
        <time>2014-05-22T09:12:03Z</time>
      </trkpt>
      <trkpt lat="44.50059" lon="5.65406">
        <ele>1271.48</ele>
        <time>2014-05-22T09:12:21Z</time>
      </trkpt>
      <trkpt lat="44.50055" lon="5.6539">
        <ele>1271.48</ele>
        <time>2014-05-22T09:12:37Z</time>
      </trkpt>
      <trkpt lat="44.50055" lon="5.65392">
        <ele>1271.48</ele>
        <time>2014-05-22T09:12:41Z</time>
      </trkpt>
      <trkpt lat="44.50056" lon="5.65398">
        <ele>1270.04</ele>
        <time>2014-05-22T09:12:58Z</time>
      </trkpt>
      <trkpt lat="44.50055" lon="5.654">
        <ele>1269.56</ele>
        <time>2014-05-22T09:13:16Z</time>
      </trkpt>
      <trkpt lat="44.50053" lon="5.65397">
        <ele>1271</ele>
        <time>2014-05-22T09:13:20Z</time>
      </trkpt>
      <trkpt lat="44.50053" lon="5.65391">
        <ele>1271</ele>
        <time>2014-05-22T09:13:30Z</time>
      </trkpt>
      <trkpt lat="44.50054" lon="5.65387">
        <ele>1271</ele>
        <time>2014-05-22T09:13:49Z</time>
      </trkpt>
      <trkpt lat="44.50054" lon="5.6539">
        <ele>1272.92</ele>
        <time>2014-05-22T09:14:09Z</time>
      </trkpt>
      <trkpt lat="44.50053" lon="5.65392">
        <ele>1269.56</ele>
        <time>2014-05-22T09:14:18Z</time>
      </trkpt>
      <trkpt lat="44.50052" lon="5.65392">
        <ele>1270.04</ele>
        <time>2014-05-22T09:14:19Z</time>
      </trkpt>
      <trkpt lat="44.50046" lon="5.65395">
        <ele>1270.52</ele>
        <time>2014-05-22T09:14:34Z</time>
      </trkpt>
      <trkpt lat="44.50046" lon="5.65382">
        <ele>1271.96</ele>
        <time>2014-05-22T09:14:52Z</time>
      </trkpt>
      <trkpt lat="44.50043" lon="5.65372">
        <ele>1273.88</ele>
        <time>2014-05-22T09:15:10Z</time>
      </trkpt>
      <trkpt lat="44.5004" lon="5.65365">
        <ele>1277.25</ele>
        <time>2014-05-22T09:15:24Z</time>
      </trkpt>
      <trkpt lat="44.50035" lon="5.65358">
        <ele>1278.69</ele>
        <time>2014-05-22T09:15:44Z</time>
      </trkpt>
      <trkpt lat="44.50029" lon="5.65349">
        <ele>1279.17</ele>
        <time>2014-05-22T09:16:06Z</time>
      </trkpt>
      <trkpt lat="44.50026" lon="5.65348">
        <ele>1279.65</ele>
        <time>2014-05-22T09:16:10Z</time>
      </trkpt>
      <trkpt lat="44.50024" lon="5.65346">
        <ele>1279.65</ele>
        <time>2014-05-22T09:16:12Z</time>
      </trkpt>
      <trkpt lat="44.50021" lon="5.65322">
        <ele>1278.69</ele>
        <time>2014-05-22T09:16:29Z</time>
      </trkpt>
      <trkpt lat="44.5001" lon="5.65303">
        <ele>1279.65</ele>
        <time>2014-05-22T09:16:48Z</time>
      </trkpt>
      <trkpt lat="44.49998" lon="5.65297">
        <ele>1281.57</ele>
        <time>2014-05-22T09:17:03Z</time>
      </trkpt>
      <trkpt lat="44.49986" lon="5.65292">
        <ele>1283.5</ele>
        <time>2014-05-22T09:17:20Z</time>
      </trkpt>
      <trkpt lat="44.49976" lon="5.65285">
        <ele>1285.42</ele>
        <time>2014-05-22T09:17:37Z</time>
      </trkpt>
      <trkpt lat="44.49969" lon="5.65277">
        <ele>1287.82</ele>
        <time>2014-05-22T09:17:56Z</time>
      </trkpt>
      <trkpt lat="44.49969" lon="5.65264">
        <ele>1289.27</ele>
        <time>2014-05-22T09:18:13Z</time>
      </trkpt>
      <trkpt lat="44.49974" lon="5.65245">
        <ele>1291.67</ele>
        <time>2014-05-22T09:18:34Z</time>
      </trkpt>
      <trkpt lat="44.4998" lon="5.65235">
        <ele>1294.55</ele>
        <time>2014-05-22T09:18:54Z</time>
      </trkpt>
      <trkpt lat="44.49975" lon="5.65234">
        <ele>1295.99</ele>
        <time>2014-05-22T09:19:09Z</time>
      </trkpt>
      <trkpt lat="44.49966" lon="5.65237">
        <ele>1299.84</ele>
        <time>2014-05-22T09:19:26Z</time>
      </trkpt>
      <trkpt lat="44.49959" lon="5.65242">
        <ele>1299.36</ele>
        <time>2014-05-22T09:19:41Z</time>
      </trkpt>
      <trkpt lat="44.49953" lon="5.65242">
        <ele>1302.72</ele>
        <time>2014-05-22T09:19:56Z</time>
      </trkpt>
      <trkpt lat="44.49944" lon="5.65242">
        <ele>1304.65</ele>
        <time>2014-05-22T09:20:14Z</time>
      </trkpt>
      <trkpt lat="44.49932" lon="5.65247">
        <ele>1306.57</ele>
        <time>2014-05-22T09:20:30Z</time>
      </trkpt>
      <trkpt lat="44.49927" lon="5.65243">
        <ele>1308.97</ele>
        <time>2014-05-22T09:20:46Z</time>
      </trkpt>
      <trkpt lat="44.49923" lon="5.65235">
        <ele>1310.9</ele>
        <time>2014-05-22T09:21:03Z</time>
      </trkpt>
      <trkpt lat="44.49925" lon="5.65224">
        <ele>1313.78</ele>
        <time>2014-05-22T09:21:22Z</time>
      </trkpt>
      <trkpt lat="44.49919" lon="5.65219">
        <ele>1316.18</ele>
        <time>2014-05-22T09:21:40Z</time>
      </trkpt>
      <trkpt lat="44.49927" lon="5.6521">
        <ele>1318.59</ele>
        <time>2014-05-22T09:22:00Z</time>
      </trkpt>
      <trkpt lat="44.49926" lon="5.65204">
        <ele>1320.51</ele>
        <time>2014-05-22T09:22:16Z</time>
      </trkpt>
      <trkpt lat="44.49923" lon="5.65202">
        <ele>1322.43</ele>
        <time>2014-05-22T09:22:35Z</time>
      </trkpt>
      <trkpt lat="44.49924" lon="5.65191">
        <ele>1325.31</ele>
        <time>2014-05-22T09:22:53Z</time>
      </trkpt>
      <trkpt lat="44.49922" lon="5.65183">
        <ele>1328.68</ele>
        <time>2014-05-22T09:23:12Z</time>
      </trkpt>
      <trkpt lat="44.49919" lon="5.65174">
        <ele>1332.52</ele>
        <time>2014-05-22T09:23:28Z</time>
      </trkpt>
      <trkpt lat="44.49921" lon="5.65155">
        <ele>1333.97</ele>
        <time>2014-05-22T09:23:52Z</time>
      </trkpt>
      <trkpt lat="44.49912" lon="5.65138">
        <ele>1334.93</ele>
        <time>2014-05-22T09:24:10Z</time>
      </trkpt>
      <trkpt lat="44.49905" lon="5.65118">
        <ele>1335.89</ele>
        <time>2014-05-22T09:24:30Z</time>
      </trkpt>
      <trkpt lat="44.49894" lon="5.65115">
        <ele>1337.81</ele>
        <time>2014-05-22T09:24:47Z</time>
      </trkpt>
      <trkpt lat="44.49882" lon="5.65119">
        <ele>1339.73</ele>
        <time>2014-05-22T09:25:04Z</time>
      </trkpt>
      <trkpt lat="44.49873" lon="5.65111">
        <ele>1342.14</ele>
        <time>2014-05-22T09:25:23Z</time>
      </trkpt>
      <trkpt lat="44.49871" lon="5.65095">
        <ele>1345.5</ele>
        <time>2014-05-22T09:25:42Z</time>
      </trkpt>
      <trkpt lat="44.49875" lon="5.65084">
        <ele>1347.91</ele>
        <time>2014-05-22T09:26:01Z</time>
      </trkpt>
      <trkpt lat="44.4988" lon="5.65077">
        <ele>1350.31</ele>
        <time>2014-05-22T09:26:19Z</time>
      </trkpt>
      <trkpt lat="44.49887" lon="5.65075">
        <ele>1353.67</ele>
        <time>2014-05-22T09:26:33Z</time>
      </trkpt>
      <trkpt lat="44.49892" lon="5.65072">
        <ele>1355.6</ele>
        <time>2014-05-22T09:26:49Z</time>
      </trkpt>
      <trkpt lat="44.49897" lon="5.65066">
        <ele>1358.48</ele>
        <time>2014-05-22T09:27:06Z</time>
      </trkpt>
      <trkpt lat="44.49902" lon="5.65058">
        <ele>1360.88</ele>
        <time>2014-05-22T09:27:23Z</time>
      </trkpt>
      <trkpt lat="44.49906" lon="5.65048">
        <ele>1362.33</ele>
        <time>2014-05-22T09:27:37Z</time>
      </trkpt>
      <trkpt lat="44.49913" lon="5.65035">
        <ele>1362.81</ele>
        <time>2014-05-22T09:27:49Z</time>
      </trkpt>
      <trkpt lat="44.49916" lon="5.65016">
        <ele>1361.36</ele>
        <time>2014-05-22T09:28:04Z</time>
      </trkpt>
      <trkpt lat="44.49922" lon="5.65001">
        <ele>1359.92</ele>
        <time>2014-05-22T09:28:21Z</time>
      </trkpt>
      <trkpt lat="44.49926" lon="5.6499">
        <ele>1358</ele>
        <time>2014-05-22T09:28:37Z</time>
      </trkpt>
      <trkpt lat="44.49931" lon="5.64974">
        <ele>1354.63</ele>
        <time>2014-05-22T09:28:52Z</time>
      </trkpt>
      <trkpt lat="44.4993" lon="5.64963">
        <ele>1352.71</ele>
        <time>2014-05-22T09:29:07Z</time>
      </trkpt>
      <trkpt lat="44.49937" lon="5.64949">
        <ele>1351.27</ele>
        <time>2014-05-22T09:29:22Z</time>
      </trkpt>
      <trkpt lat="44.49938" lon="5.64931">
        <ele>1348.39</ele>
        <time>2014-05-22T09:29:37Z</time>
      </trkpt>
      <trkpt lat="44.49941" lon="5.64912">
        <ele>1345.02</ele>
        <time>2014-05-22T09:29:52Z</time>
      </trkpt>
      <trkpt lat="44.49948" lon="5.64897">
        <ele>1344.54</ele>
        <time>2014-05-22T09:30:05Z</time>
      </trkpt>
      <trkpt lat="44.49954" lon="5.64882">
        <ele>1345.5</ele>
        <time>2014-05-22T09:30:19Z</time>
      </trkpt>
      <trkpt lat="44.49959" lon="5.64862">
        <ele>1347.43</ele>
        <time>2014-05-22T09:30:34Z</time>
      </trkpt>
      <trkpt lat="44.49965" lon="5.64851">
        <ele>1350.79</ele>
        <time>2014-05-22T09:30:51Z</time>
      </trkpt>
      <trkpt lat="44.49971" lon="5.64847">
        <ele>1353.67</ele>
        <time>2014-05-22T09:31:03Z</time>
      </trkpt>
      <trkpt lat="44.49973" lon="5.64839">
        <ele>1357.04</ele>
        <time>2014-05-22T09:31:20Z</time>
      </trkpt>
      <trkpt lat="44.49974" lon="5.64839">
        <ele>1357.04</ele>
        <time>2014-05-22T09:31:21Z</time>
      </trkpt>
      <trkpt lat="44.49978" lon="5.64834">
        <ele>1360.88</ele>
        <time>2014-05-22T09:31:33Z</time>
      </trkpt>
      <trkpt lat="44.49982" lon="5.64829">
        <ele>1360.4</ele>
        <time>2014-05-22T09:31:48Z</time>
      </trkpt>
      <trkpt lat="44.49987" lon="5.64819">
        <ele>1363.29</ele>
        <time>2014-05-22T09:32:05Z</time>
      </trkpt>
      <trkpt lat="44.49986" lon="5.6481">
        <ele>1366.17</ele>
        <time>2014-05-22T09:32:16Z</time>
      </trkpt>
      <trkpt lat="44.4999" lon="5.64805">
        <ele>1369.54</ele>
        <time>2014-05-22T09:32:34Z</time>
      </trkpt>
      <trkpt lat="44.49992" lon="5.64801">
        <ele>1370.02</ele>
        <time>2014-05-22T09:32:50Z</time>
      </trkpt>
      <trkpt lat="44.49991" lon="5.64802">
        <ele>1369.05</ele>
        <time>2014-05-22T09:33:06Z</time>
      </trkpt>
      <trkpt lat="44.4999" lon="5.64803">
        <ele>1369.54</ele>
        <time>2014-05-22T09:33:35Z</time>
      </trkpt>
      <trkpt lat="44.49991" lon="5.648">
        <ele>1370.02</ele>
        <time>2014-05-22T09:34:11Z</time>
      </trkpt>
      <trkpt lat="44.4999" lon="5.64797">
        <ele>1369.54</ele>
        <time>2014-05-22T09:34:47Z</time>
      </trkpt>
      <trkpt lat="44.49989" lon="5.64796">
        <ele>1369.54</ele>
        <time>2014-05-22T09:35:11Z</time>
      </trkpt>
      <trkpt lat="44.49993" lon="5.64795">
        <ele>1371.94</ele>
        <time>2014-05-22T09:35:22Z</time>
      </trkpt>
      <trkpt lat="44.49998" lon="5.64786">
        <ele>1372.9</ele>
        <time>2014-05-22T09:35:43Z</time>
      </trkpt>
      <trkpt lat="44.50007" lon="5.64776">
        <ele>1375.3</ele>
        <time>2014-05-22T09:36:03Z</time>
      </trkpt>
      <trkpt lat="44.50015" lon="5.64762">
        <ele>1375.3</ele>
        <time>2014-05-22T09:36:19Z</time>
      </trkpt>
      <trkpt lat="44.5002" lon="5.64755">
        <ele>1374.82</ele>
        <time>2014-05-22T09:36:36Z</time>
      </trkpt>
      <trkpt lat="44.50027" lon="5.64745">
        <ele>1373.38</ele>
        <time>2014-05-22T09:36:51Z</time>
      </trkpt>
      <trkpt lat="44.50032" lon="5.64738">
        <ele>1370.5</ele>
        <time>2014-05-22T09:37:03Z</time>
      </trkpt>
      <trkpt lat="44.50042" lon="5.64724">
        <ele>1370.02</ele>
        <time>2014-05-22T09:37:21Z</time>
      </trkpt>
      <trkpt lat="44.5005" lon="5.64715">
        <ele>1368.09</ele>
        <time>2014-05-22T09:37:38Z</time>
      </trkpt>
      <trkpt lat="44.50051" lon="5.64698">
        <ele>1366.65</ele>
        <time>2014-05-22T09:37:54Z</time>
      </trkpt>
      <trkpt lat="44.50059" lon="5.64688">
        <ele>1367.13</ele>
        <time>2014-05-22T09:38:07Z</time>
      </trkpt>
      <trkpt lat="44.50063" lon="5.64668">
        <ele>1366.65</ele>
        <time>2014-05-22T09:38:25Z</time>
      </trkpt>
      <trkpt lat="44.50073" lon="5.64648">
        <ele>1367.13</ele>
        <time>2014-05-22T09:38:43Z</time>
      </trkpt>
      <trkpt lat="44.5008" lon="5.64632">
        <ele>1366.65</ele>
        <time>2014-05-22T09:38:58Z</time>
      </trkpt>
      <trkpt lat="44.50088" lon="5.64613">
        <ele>1365.69</ele>
        <time>2014-05-22T09:39:14Z</time>
      </trkpt>
      <trkpt lat="44.50094" lon="5.646">
        <ele>1365.21</ele>
        <time>2014-05-22T09:39:26Z</time>
      </trkpt>
      <trkpt lat="44.50103" lon="5.64589">
        <ele>1366.65</ele>
        <time>2014-05-22T09:39:40Z</time>
      </trkpt>
      <trkpt lat="44.50113" lon="5.64572">
        <ele>1367.13</ele>
        <time>2014-05-22T09:39:55Z</time>
      </trkpt>
      <trkpt lat="44.50124" lon="5.64556">
        <ele>1366.17</ele>
        <time>2014-05-22T09:40:12Z</time>
      </trkpt>
      <trkpt lat="44.50133" lon="5.64539">
        <ele>1365.69</ele>
        <time>2014-05-22T09:40:27Z</time>
      </trkpt>
      <trkpt lat="44.50145" lon="5.64519">
        <ele>1365.21</ele>
        <time>2014-05-22T09:40:44Z</time>
      </trkpt>
      <trkpt lat="44.50151" lon="5.64508">
        <ele>1364.73</ele>
        <time>2014-05-22T09:40:53Z</time>
      </trkpt>
      <trkpt lat="44.50165" lon="5.64487">
        <ele>1363.29</ele>
        <time>2014-05-22T09:41:10Z</time>
      </trkpt>
      <trkpt lat="44.50172" lon="5.64472">
        <ele>1361.36</ele>
        <time>2014-05-22T09:41:24Z</time>
      </trkpt>
      <trkpt lat="44.5018" lon="5.64456">
        <ele>1358.96</ele>
        <time>2014-05-22T09:41:39Z</time>
      </trkpt>
      <trkpt lat="44.50191" lon="5.64434">
        <ele>1356.56</ele>
        <time>2014-05-22T09:41:57Z</time>
      </trkpt>
      <trkpt lat="44.50197" lon="5.64417">
        <ele>1355.12</ele>
        <time>2014-05-22T09:42:13Z</time>
      </trkpt>
      <trkpt lat="44.50203" lon="5.64395">
        <ele>1353.19</ele>
        <time>2014-05-22T09:42:29Z</time>
      </trkpt>
      <trkpt lat="44.50207" lon="5.64372">
        <ele>1350.31</ele>
        <time>2014-05-22T09:42:45Z</time>
      </trkpt>
      <trkpt lat="44.50213" lon="5.64349">
        <ele>1347.43</ele>
        <time>2014-05-22T09:43:02Z</time>
      </trkpt>
      <trkpt lat="44.50217" lon="5.64333">
        <ele>1344.06</ele>
        <time>2014-05-22T09:43:16Z</time>
      </trkpt>
      <trkpt lat="44.50217" lon="5.6432">
        <ele>1341.66</ele>
        <time>2014-05-22T09:43:30Z</time>
      </trkpt>
      <trkpt lat="44.50215" lon="5.64308">
        <ele>1339.25</ele>
        <time>2014-05-22T09:43:45Z</time>
      </trkpt>
      <trkpt lat="44.50216" lon="5.64295">
        <ele>1336.85</ele>
        <time>2014-05-22T09:43:54Z</time>
      </trkpt>
      <trkpt lat="44.50217" lon="5.64275">
        <ele>1333.97</ele>
        <time>2014-05-22T09:44:10Z</time>
      </trkpt>
      <trkpt lat="44.50221" lon="5.64259">
        <ele>1330.6</ele>
        <time>2014-05-22T09:44:22Z</time>
      </trkpt>
      <trkpt lat="44.50224" lon="5.64243">
        <ele>1328.2</ele>
        <time>2014-05-22T09:44:34Z</time>
      </trkpt>
      <trkpt lat="44.50228" lon="5.64219">
        <ele>1324.83</ele>
        <time>2014-05-22T09:44:50Z</time>
      </trkpt>
      <trkpt lat="44.50229" lon="5.64198">
        <ele>1324.83</ele>
        <time>2014-05-22T09:45:08Z</time>
      </trkpt>
      <trkpt lat="44.50229" lon="5.64196">
        <ele>1324.83</ele>
        <time>2014-05-22T09:45:28Z</time>
      </trkpt>
      <trkpt lat="44.50229" lon="5.64199">
        <ele>1324.83</ele>
        <time>2014-05-22T09:45:58Z</time>
      </trkpt>
      <trkpt lat="44.50231" lon="5.64201">
        <ele>1325.31</ele>
        <time>2014-05-22T09:46:28Z</time>
      </trkpt>
      <trkpt lat="44.50231" lon="5.64194">
        <ele>1324.35</ele>
        <time>2014-05-22T09:46:52Z</time>
      </trkpt>
      <trkpt lat="44.50233" lon="5.64183">
        <ele>1324.83</ele>
        <time>2014-05-22T09:47:08Z</time>
      </trkpt>
      <trkpt lat="44.50236" lon="5.64163">
        <ele>1326.76</ele>
        <time>2014-05-22T09:47:27Z</time>
      </trkpt>
      <trkpt lat="44.50234" lon="5.64144">
        <ele>1328.2</ele>
        <time>2014-05-22T09:47:43Z</time>
      </trkpt>
      <trkpt lat="44.50227" lon="5.64128">
        <ele>1329.64</ele>
        <time>2014-05-22T09:48:03Z</time>
      </trkpt>
      <trkpt lat="44.50225" lon="5.6411">
        <ele>1331.08</ele>
        <time>2014-05-22T09:48:18Z</time>
      </trkpt>
      <trkpt lat="44.50219" lon="5.64097">
        <ele>1328.2</ele>
        <time>2014-05-22T09:48:34Z</time>
      </trkpt>
      <trkpt lat="44.50214" lon="5.64085">
        <ele>1325.31</ele>
        <time>2014-05-22T09:48:52Z</time>
      </trkpt>
      <trkpt lat="44.5021" lon="5.64069">
        <ele>1322.43</ele>
        <time>2014-05-22T09:49:06Z</time>
      </trkpt>
      <trkpt lat="44.50209" lon="5.64059">
        <ele>1319.07</ele>
        <time>2014-05-22T09:49:18Z</time>
      </trkpt>
      <trkpt lat="44.50208" lon="5.64048">
        <ele>1317.14</ele>
        <time>2014-05-22T09:49:32Z</time>
      </trkpt>
      <trkpt lat="44.50204" lon="5.64038">
        <ele>1313.78</ele>
        <time>2014-05-22T09:49:45Z</time>
      </trkpt>
      <trkpt lat="44.50202" lon="5.6403">
        <ele>1310.41</ele>
        <time>2014-05-22T09:49:57Z</time>
      </trkpt>
      <trkpt lat="44.50199" lon="5.64019">
        <ele>1307.53</ele>
        <time>2014-05-22T09:50:11Z</time>
      </trkpt>
      <trkpt lat="44.50191" lon="5.64013">
        <ele>1304.17</ele>
        <time>2014-05-22T09:50:26Z</time>
      </trkpt>
      <trkpt lat="44.50187" lon="5.63991">
        <ele>1301.76</ele>
        <time>2014-05-22T09:50:44Z</time>
      </trkpt>
      <trkpt lat="44.50187" lon="5.63966">
        <ele>1298.88</ele>
        <time>2014-05-22T09:51:02Z</time>
      </trkpt>
      <trkpt lat="44.50193" lon="5.63944">
        <ele>1296.48</ele>
        <time>2014-05-22T09:51:18Z</time>
      </trkpt>
      <trkpt lat="44.50199" lon="5.63922">
        <ele>1294.07</ele>
        <time>2014-05-22T09:51:36Z</time>
      </trkpt>
      <trkpt lat="44.50205" lon="5.63899">
        <ele>1292.63</ele>
        <time>2014-05-22T09:51:53Z</time>
      </trkpt>
      <trkpt lat="44.50213" lon="5.63873">
        <ele>1291.67</ele>
        <time>2014-05-22T09:52:13Z</time>
      </trkpt>
      <trkpt lat="44.50216" lon="5.6385">
        <ele>1290.23</ele>
        <time>2014-05-22T09:52:29Z</time>
      </trkpt>
      <trkpt lat="44.50213" lon="5.63825">
        <ele>1287.82</ele>
        <time>2014-05-22T09:52:48Z</time>
      </trkpt>
      <trkpt lat="44.50215" lon="5.63801">
        <ele>1285.9</ele>
        <time>2014-05-22T09:53:05Z</time>
      </trkpt>
      <trkpt lat="44.50215" lon="5.6377">
        <ele>1287.82</ele>
        <time>2014-05-22T09:53:25Z</time>
      </trkpt>
      <trkpt lat="44.50207" lon="5.63757">
        <ele>1291.67</ele>
        <time>2014-05-22T09:53:43Z</time>
      </trkpt>
      <trkpt lat="44.50204" lon="5.63746">
        <ele>1293.11</ele>
        <time>2014-05-22T09:53:59Z</time>
      </trkpt>
      <trkpt lat="44.50199" lon="5.63742">
        <ele>1295.99</ele>
        <time>2014-05-22T09:54:18Z</time>
      </trkpt>
      <trkpt lat="44.50192" lon="5.63733">
        <ele>1298.88</ele>
        <time>2014-05-22T09:54:37Z</time>
      </trkpt>
      <trkpt lat="44.50189" lon="5.63725">
        <ele>1301.28</ele>
        <time>2014-05-22T09:54:55Z</time>
      </trkpt>
      <trkpt lat="44.50187" lon="5.63713">
        <ele>1303.69</ele>
        <time>2014-05-22T09:55:12Z</time>
      </trkpt>
      <trkpt lat="44.50192" lon="5.63697">
        <ele>1306.57</ele>
        <time>2014-05-22T09:55:32Z</time>
      </trkpt>
      <trkpt lat="44.50198" lon="5.63678">
        <ele>1308.01</ele>
        <time>2014-05-22T09:55:50Z</time>
      </trkpt>
      <trkpt lat="44.50207" lon="5.63667">
        <ele>1309.93</ele>
        <time>2014-05-22T09:56:07Z</time>
      </trkpt>
      <trkpt lat="44.50212" lon="5.63654">
        <ele>1310.9</ele>
        <time>2014-05-22T09:56:25Z</time>
      </trkpt>
      <trkpt lat="44.50219" lon="5.63631">
        <ele>1311.38</ele>
        <time>2014-05-22T09:56:47Z</time>
      </trkpt>
      <trkpt lat="44.50226" lon="5.63606">
        <ele>1311.86</ele>
        <time>2014-05-22T09:57:05Z</time>
      </trkpt>
      <trkpt lat="44.50235" lon="5.63589">
        <ele>1314.26</ele>
        <time>2014-05-22T09:57:23Z</time>
      </trkpt>
      <trkpt lat="44.50243" lon="5.63567">
        <ele>1314.74</ele>
        <time>2014-05-22T09:57:40Z</time>
      </trkpt>
      <trkpt lat="44.50249" lon="5.63545">
        <ele>1314.26</ele>
        <time>2014-05-22T09:57:58Z</time>
      </trkpt>
      <trkpt lat="44.50251" lon="5.63526">
        <ele>1315.7</ele>
        <time>2014-05-22T09:58:16Z</time>
      </trkpt>
      <trkpt lat="44.50254" lon="5.63508">
        <ele>1316.66</ele>
        <time>2014-05-22T09:58:30Z</time>
      </trkpt>
      <trkpt lat="44.50253" lon="5.63486">
        <ele>1316.66</ele>
        <time>2014-05-22T09:58:44Z</time>
      </trkpt>
      <trkpt lat="44.5025" lon="5.63463">
        <ele>1317.62</ele>
        <time>2014-05-22T09:59:04Z</time>
      </trkpt>
      <trkpt lat="44.50246" lon="5.63455">
        <ele>1320.51</ele>
        <time>2014-05-22T09:59:10Z</time>
      </trkpt>
      <trkpt lat="44.50245" lon="5.63449">
        <ele>1321.47</ele>
        <time>2014-05-22T09:59:15Z</time>
      </trkpt>
      <trkpt lat="44.5024" lon="5.63427">
        <ele>1322.43</ele>
        <time>2014-05-22T09:59:34Z</time>
      </trkpt>
      <trkpt lat="44.50237" lon="5.63408">
        <ele>1322.43</ele>
        <time>2014-05-22T09:59:49Z</time>
      </trkpt>
      <trkpt lat="44.50237" lon="5.63402">
        <ele>1323.39</ele>
        <time>2014-05-22T09:59:53Z</time>
      </trkpt>
      <trkpt lat="44.50232" lon="5.6338">
        <ele>1325.8</ele>
        <time>2014-05-22T10:00:10Z</time>
      </trkpt>
      <trkpt lat="44.50225" lon="5.63357">
        <ele>1327.72</ele>
        <time>2014-05-22T10:00:29Z</time>
      </trkpt>
      <trkpt lat="44.50228" lon="5.63337">
        <ele>1327.24</ele>
        <time>2014-05-22T10:00:44Z</time>
      </trkpt>
      <trkpt lat="44.50222" lon="5.63316">
        <ele>1328.68</ele>
        <time>2014-05-22T10:01:00Z</time>
      </trkpt>
      <trkpt lat="44.50209" lon="5.63298">
        <ele>1330.6</ele>
        <time>2014-05-22T10:01:18Z</time>
      </trkpt>
      <trkpt lat="44.50202" lon="5.63275">
        <ele>1330.6</ele>
        <time>2014-05-22T10:01:35Z</time>
      </trkpt>
      <trkpt lat="44.50195" lon="5.63258">
        <ele>1331.08</ele>
        <time>2014-05-22T10:01:50Z</time>
      </trkpt>
      <trkpt lat="44.50185" lon="5.63237">
        <ele>1331.08</ele>
        <time>2014-05-22T10:02:09Z</time>
      </trkpt>
      <trkpt lat="44.50183" lon="5.63213">
        <ele>1333.49</ele>
        <time>2014-05-22T10:02:28Z</time>
      </trkpt>
      <trkpt lat="44.50179" lon="5.63195">
        <ele>1336.37</ele>
        <time>2014-05-22T10:02:45Z</time>
      </trkpt>
      <trkpt lat="44.50177" lon="5.63176">
        <ele>1338.77</ele>
        <time>2014-05-22T10:03:00Z</time>
      </trkpt>
      <trkpt lat="44.50177" lon="5.63151">
        <ele>1338.77</ele>
        <time>2014-05-22T10:03:19Z</time>
      </trkpt>
      <trkpt lat="44.50177" lon="5.63133">
        <ele>1338.77</ele>
        <time>2014-05-22T10:03:33Z</time>
      </trkpt>
      <trkpt lat="44.50171" lon="5.63115">
        <ele>1339.73</ele>
        <time>2014-05-22T10:03:48Z</time>
      </trkpt>
      <trkpt lat="44.50165" lon="5.631">
        <ele>1337.33</ele>
        <time>2014-05-22T10:04:04Z</time>
      </trkpt>
      <trkpt lat="44.50165" lon="5.63092">
        <ele>1336.85</ele>
        <time>2014-05-22T10:04:22Z</time>
      </trkpt>
      <trkpt lat="44.5016" lon="5.6309">
        <ele>1336.37</ele>
        <time>2014-05-22T10:04:49Z</time>
      </trkpt>
      <trkpt lat="44.5016" lon="5.63091">
        <ele>1336.85</ele>
        <time>2014-05-22T10:05:24Z</time>
      </trkpt>
      <trkpt lat="44.50164" lon="5.63085">
        <ele>1335.89</ele>
        <time>2014-05-22T10:05:48Z</time>
      </trkpt>
      <trkpt lat="44.50168" lon="5.63076">
        <ele>1335.89</ele>
        <time>2014-05-22T10:06:05Z</time>
      </trkpt>
      <trkpt lat="44.50166" lon="5.6307">
        <ele>1335.41</ele>
        <time>2014-05-22T10:06:24Z</time>
      </trkpt>
      <trkpt lat="44.50168" lon="5.63077">
        <ele>1334.45</ele>
        <time>2014-05-22T10:06:41Z</time>
      </trkpt>
      <trkpt lat="44.50167" lon="5.63073">
        <ele>1334.45</ele>
        <time>2014-05-22T10:06:59Z</time>
      </trkpt>
      <trkpt lat="44.50172" lon="5.63071">
        <ele>1334.45</ele>
        <time>2014-05-22T10:07:25Z</time>
      </trkpt>
      <trkpt lat="44.50168" lon="5.63078">
        <ele>1334.93</ele>
        <time>2014-05-22T10:07:54Z</time>
      </trkpt>
      <trkpt lat="44.50162" lon="5.63078">
        <ele>1335.41</ele>
        <time>2014-05-22T10:08:29Z</time>
      </trkpt>
      <trkpt lat="44.5016" lon="5.6308">
        <ele>1336.37</ele>
        <time>2014-05-22T10:09:03Z</time>
      </trkpt>
      <trkpt lat="44.50166" lon="5.63078">
        <ele>1335.41</ele>
        <time>2014-05-22T10:09:43Z</time>
      </trkpt>
      <trkpt lat="44.50164" lon="5.63079">
        <ele>1336.85</ele>
        <time>2014-05-22T10:10:18Z</time>
      </trkpt>
      <trkpt lat="44.50165" lon="5.63077">
        <ele>1337.33</ele>
        <time>2014-05-22T10:10:53Z</time>
      </trkpt>
      <trkpt lat="44.50163" lon="5.63078">
        <ele>1337.33</ele>
        <time>2014-05-22T10:11:30Z</time>
      </trkpt>
      <trkpt lat="44.50163" lon="5.63079">
        <ele>1339.25</ele>
        <time>2014-05-22T10:12:08Z</time>
      </trkpt>
      <trkpt lat="44.50166" lon="5.63077">
        <ele>1339.25</ele>
        <time>2014-05-22T10:12:39Z</time>
      </trkpt>
      <trkpt lat="44.50163" lon="5.63077">
        <ele>1338.29</ele>
        <time>2014-05-22T10:13:21Z</time>
      </trkpt>
      <trkpt lat="44.50165" lon="5.63073">
        <ele>1339.25</ele>
        <time>2014-05-22T10:13:53Z</time>
      </trkpt>
      <trkpt lat="44.50165" lon="5.63077">
        <ele>1337.81</ele>
        <time>2014-05-22T10:14:26Z</time>
      </trkpt>
      <trkpt lat="44.50167" lon="5.63078">
        <ele>1338.29</ele>
        <time>2014-05-22T10:14:59Z</time>
      </trkpt>
      <trkpt lat="44.50167" lon="5.63077">
        <ele>1337.81</ele>
        <time>2014-05-22T10:15:30Z</time>
      </trkpt>
      <trkpt lat="44.50166" lon="5.63081">
        <ele>1337.81</ele>
        <time>2014-05-22T10:16:08Z</time>
      </trkpt>
      <trkpt lat="44.50163" lon="5.63083">
        <ele>1338.77</ele>
        <time>2014-05-22T10:16:50Z</time>
      </trkpt>
      <trkpt lat="44.50164" lon="5.63085">
        <ele>1336.85</ele>
        <time>2014-05-22T10:17:24Z</time>
      </trkpt>
      <trkpt lat="44.50164" lon="5.63082">
        <ele>1338.29</ele>
        <time>2014-05-22T10:18:02Z</time>
      </trkpt>
      <trkpt lat="44.50162" lon="5.63084">
        <ele>1338.77</ele>
        <time>2014-05-22T10:18:37Z</time>
      </trkpt>
      <trkpt lat="44.50163" lon="5.63081">
        <ele>1336.85</ele>
        <time>2014-05-22T10:19:13Z</time>
      </trkpt>
      <trkpt lat="44.50162" lon="5.63076">
        <ele>1339.73</ele>
        <time>2014-05-22T10:19:31Z</time>
      </trkpt>
      <trkpt lat="44.50169" lon="5.63078">
        <ele>1339.73</ele>
        <time>2014-05-22T10:19:49Z</time>
      </trkpt>
      <trkpt lat="44.50169" lon="5.63083">
        <ele>1339.25</ele>
        <time>2014-05-22T10:20:32Z</time>
      </trkpt>
      <trkpt lat="44.5017" lon="5.63079">
        <ele>1338.29</ele>
        <time>2014-05-22T10:21:12Z</time>
      </trkpt>
      <trkpt lat="44.50171" lon="5.63082">
        <ele>1338.77</ele>
        <time>2014-05-22T10:21:49Z</time>
      </trkpt>
      <trkpt lat="44.5017" lon="5.63079">
        <ele>1338.77</ele>
        <time>2014-05-22T10:22:31Z</time>
      </trkpt>
      <trkpt lat="44.50174" lon="5.63081">
        <ele>1337.81</ele>
        <time>2014-05-22T10:23:11Z</time>
      </trkpt>
      <trkpt lat="44.50169" lon="5.6308">
        <ele>1338.29</ele>
        <time>2014-05-22T10:24:06Z</time>
      </trkpt>
      <trkpt lat="44.50173" lon="5.63079">
        <ele>1337.81</ele>
        <time>2014-05-22T10:24:48Z</time>
      </trkpt>
      <trkpt lat="44.50174" lon="5.63076">
        <ele>1337.81</ele>
        <time>2014-05-22T10:25:16Z</time>
      </trkpt>
      <trkpt lat="44.5017" lon="5.6308">
        <ele>1337.81</ele>
        <time>2014-05-22T10:25:51Z</time>
      </trkpt>
      <trkpt lat="44.50172" lon="5.63075">
        <ele>1338.29</ele>
        <time>2014-05-22T10:26:27Z</time>
      </trkpt>
      <trkpt lat="44.50168" lon="5.63077">
        <ele>1338.77</ele>
        <time>2014-05-22T10:27:05Z</time>
      </trkpt>
      <trkpt lat="44.50171" lon="5.63079">
        <ele>1339.25</ele>
        <time>2014-05-22T10:27:36Z</time>
      </trkpt>
      <trkpt lat="44.50166" lon="5.63073">
        <ele>1340.22</ele>
        <time>2014-05-22T10:28:13Z</time>
      </trkpt>
      <trkpt lat="44.50165" lon="5.63079">
        <ele>1339.25</ele>
        <time>2014-05-22T10:28:38Z</time>
      </trkpt>
      <trkpt lat="44.50165" lon="5.63072">
        <ele>1340.22</ele>
        <time>2014-05-22T10:29:00Z</time>
      </trkpt>
      <trkpt lat="44.50164" lon="5.63067">
        <ele>1340.7</ele>
        <time>2014-05-22T10:29:20Z</time>
      </trkpt>
      <trkpt lat="44.50162" lon="5.63075">
        <ele>1340.7</ele>
        <time>2014-05-22T10:29:43Z</time>
      </trkpt>
      <trkpt lat="44.50164" lon="5.63071">
        <ele>1341.18</ele>
        <time>2014-05-22T10:30:05Z</time>
      </trkpt>
      <trkpt lat="44.5017" lon="5.63066">
        <ele>1340.22</ele>
        <time>2014-05-22T10:30:26Z</time>
      </trkpt>
      <trkpt lat="44.50172" lon="5.63064">
        <ele>1340.22</ele>
        <time>2014-05-22T10:30:54Z</time>
      </trkpt>
      <trkpt lat="44.50172" lon="5.63077">
        <ele>1340.7</ele>
        <time>2014-05-22T10:31:28Z</time>
      </trkpt>
      <trkpt lat="44.50168" lon="5.63078">
        <ele>1340.7</ele>
        <time>2014-05-22T10:31:49Z</time>
      </trkpt>
      <trkpt lat="44.50167" lon="5.63072">
        <ele>1339.73</ele>
        <time>2014-05-22T10:32:21Z</time>
      </trkpt>
      <trkpt lat="44.50169" lon="5.63069">
        <ele>1339.73</ele>
        <time>2014-05-22T10:32:50Z</time>
      </trkpt>
      <trkpt lat="44.50164" lon="5.63072">
        <ele>1339.25</ele>
        <time>2014-05-22T10:33:22Z</time>
      </trkpt>
      <trkpt lat="44.50167" lon="5.63078">
        <ele>1339.25</ele>
        <time>2014-05-22T10:33:52Z</time>
      </trkpt>
      <trkpt lat="44.50171" lon="5.63081">
        <ele>1339.25</ele>
        <time>2014-05-22T10:34:18Z</time>
      </trkpt>
      <trkpt lat="44.50165" lon="5.63085">
        <ele>1339.25</ele>
        <time>2014-05-22T10:34:38Z</time>
      </trkpt>
      <trkpt lat="44.50159" lon="5.63085">
        <ele>1339.25</ele>
        <time>2014-05-22T10:34:59Z</time>
      </trkpt>
      <trkpt lat="44.50156" lon="5.63077">
        <ele>1338.77</ele>
        <time>2014-05-22T10:35:13Z</time>
      </trkpt>
      <trkpt lat="44.50155" lon="5.63062">
        <ele>1338.77</ele>
        <time>2014-05-22T10:35:29Z</time>
      </trkpt>
      <trkpt lat="44.50153" lon="5.63052">
        <ele>1339.25</ele>
        <time>2014-05-22T10:35:49Z</time>
      </trkpt>
      <trkpt lat="44.5015" lon="5.6304">
        <ele>1340.22</ele>
        <time>2014-05-22T10:36:05Z</time>
      </trkpt>
      <trkpt lat="44.5015" lon="5.63035">
        <ele>1340.22</ele>
        <time>2014-05-22T10:36:08Z</time>
      </trkpt>
      <trkpt lat="44.50141" lon="5.63014">
        <ele>1338.77</ele>
        <time>2014-05-22T10:36:25Z</time>
      </trkpt>
      <trkpt lat="44.50132" lon="5.62995">
        <ele>1338.29</ele>
        <time>2014-05-22T10:36:40Z</time>
      </trkpt>
      <trkpt lat="44.5012" lon="5.62977">
        <ele>1336.85</ele>
        <time>2014-05-22T10:36:55Z</time>
      </trkpt>
      <trkpt lat="44.50106" lon="5.62958">
        <ele>1333.97</ele>
        <time>2014-05-22T10:37:10Z</time>
      </trkpt>
      <trkpt lat="44.50101" lon="5.6295">
        <ele>1333.01</ele>
        <time>2014-05-22T10:37:17Z</time>
      </trkpt>
      <trkpt lat="44.50088" lon="5.62937">
        <ele>1331.56</ele>
        <time>2014-05-22T10:37:30Z</time>
      </trkpt>
      <trkpt lat="44.50079" lon="5.6292">
        <ele>1332.04</ele>
        <time>2014-05-22T10:37:44Z</time>
      </trkpt>
      <trkpt lat="44.50073" lon="5.62894">
        <ele>1334.93</ele>
        <time>2014-05-22T10:38:02Z</time>
      </trkpt>
      <trkpt lat="44.50059" lon="5.62877">
        <ele>1335.89</ele>
        <time>2014-05-22T10:38:23Z</time>
      </trkpt>
      <trkpt lat="44.50053" lon="5.62864">
        <ele>1339.25</ele>
        <time>2014-05-22T10:38:38Z</time>
      </trkpt>
      <trkpt lat="44.50052" lon="5.62863">
        <ele>1339.25</ele>
        <time>2014-05-22T10:38:39Z</time>
      </trkpt>
      <trkpt lat="44.50037" lon="5.6285">
        <ele>1341.66</ele>
        <time>2014-05-22T10:38:55Z</time>
      </trkpt>
      <trkpt lat="44.5002" lon="5.62835">
        <ele>1343.1</ele>
        <time>2014-05-22T10:39:15Z</time>
      </trkpt>
      <trkpt lat="44.50005" lon="5.62823">
        <ele>1343.58</ele>
        <time>2014-05-22T10:39:31Z</time>
      </trkpt>
      <trkpt lat="44.49986" lon="5.62816">
        <ele>1344.54</ele>
        <time>2014-05-22T10:39:48Z</time>
      </trkpt>
      <trkpt lat="44.49974" lon="5.62804">
        <ele>1343.58</ele>
        <time>2014-05-22T10:40:03Z</time>
      </trkpt>
      <trkpt lat="44.49972" lon="5.62782">
        <ele>1342.62</ele>
        <time>2014-05-22T10:40:19Z</time>
      </trkpt>
      <trkpt lat="44.49964" lon="5.62774">
        <ele>1341.66</ele>
        <time>2014-05-22T10:40:27Z</time>
      </trkpt>
      <trkpt lat="44.4995" lon="5.62757">
        <ele>1340.22</ele>
        <time>2014-05-22T10:40:44Z</time>
      </trkpt>
      <trkpt lat="44.49939" lon="5.62743">
        <ele>1339.25</ele>
        <time>2014-05-22T10:40:59Z</time>
      </trkpt>
      <trkpt lat="44.49927" lon="5.62727">
        <ele>1337.81</ele>
        <time>2014-05-22T10:41:15Z</time>
      </trkpt>
      <trkpt lat="44.49914" lon="5.62704">
        <ele>1335.41</ele>
        <time>2014-05-22T10:41:32Z</time>
      </trkpt>
      <trkpt lat="44.49911" lon="5.62699">
        <ele>1335.89</ele>
        <time>2014-05-22T10:41:36Z</time>
      </trkpt>
      <trkpt lat="44.49901" lon="5.62682">
        <ele>1334.93</ele>
        <time>2014-05-22T10:41:51Z</time>
      </trkpt>
      <trkpt lat="44.49892" lon="5.62675">
        <ele>1334.93</ele>
        <time>2014-05-22T10:42:00Z</time>
      </trkpt>
      <trkpt lat="44.49874" lon="5.62666">
        <ele>1334.93</ele>
        <time>2014-05-22T10:42:18Z</time>
      </trkpt>
      <trkpt lat="44.49858" lon="5.62656">
        <ele>1336.37</ele>
        <time>2014-05-22T10:42:35Z</time>
      </trkpt>
      <trkpt lat="44.49843" lon="5.62648">
        <ele>1336.85</ele>
        <time>2014-05-22T10:42:52Z</time>
      </trkpt>
      <trkpt lat="44.49824" lon="5.62638">
        <ele>1338.29</ele>
        <time>2014-05-22T10:43:10Z</time>
      </trkpt>
      <trkpt lat="44.49812" lon="5.62634">
        <ele>1339.73</ele>
        <time>2014-05-22T10:43:21Z</time>
      </trkpt>
      <trkpt lat="44.49796" lon="5.62632">
        <ele>1341.66</ele>
        <time>2014-05-22T10:43:39Z</time>
      </trkpt>
      <trkpt lat="44.49794" lon="5.62631">
        <ele>1340.7</ele>
        <time>2014-05-22T10:43:40Z</time>
      </trkpt>
      <trkpt lat="44.49789" lon="5.62628">
        <ele>1339.73</ele>
        <time>2014-05-22T10:43:44Z</time>
      </trkpt>
      <trkpt lat="44.49767" lon="5.62621">
        <ele>1340.7</ele>
        <time>2014-05-22T10:44:05Z</time>
      </trkpt>
      <trkpt lat="44.49753" lon="5.62621">
        <ele>1341.66</ele>
        <time>2014-05-22T10:44:19Z</time>
      </trkpt>
      <trkpt lat="44.49739" lon="5.62626">
        <ele>1343.58</ele>
        <time>2014-05-22T10:44:35Z</time>
      </trkpt>
      <trkpt lat="44.49719" lon="5.62626">
        <ele>1345.98</ele>
        <time>2014-05-22T10:44:53Z</time>
      </trkpt>
      <trkpt lat="44.49704" lon="5.62618">
        <ele>1343.58</ele>
        <time>2014-05-22T10:45:09Z</time>
      </trkpt>
      <trkpt lat="44.49687" lon="5.62604">
        <ele>1341.66</ele>
        <time>2014-05-22T10:45:28Z</time>
      </trkpt>
      <trkpt lat="44.4967" lon="5.62593">
        <ele>1341.18</ele>
        <time>2014-05-22T10:45:43Z</time>
      </trkpt>
      <trkpt lat="44.49651" lon="5.62579">
        <ele>1343.1</ele>
        <time>2014-05-22T10:46:02Z</time>
      </trkpt>
      <trkpt lat="44.49632" lon="5.62574">
        <ele>1343.58</ele>
        <time>2014-05-22T10:46:18Z</time>
      </trkpt>
      <trkpt lat="44.49612" lon="5.62562">
        <ele>1344.06</ele>
        <time>2014-05-22T10:46:38Z</time>
      </trkpt>
      <trkpt lat="44.49598" lon="5.62549">
        <ele>1344.54</ele>
        <time>2014-05-22T10:46:52Z</time>
      </trkpt>
      <trkpt lat="44.49579" lon="5.6254">
        <ele>1345.5</ele>
        <time>2014-05-22T10:47:11Z</time>
      </trkpt>
      <trkpt lat="44.49564" lon="5.62533">
        <ele>1346.46</ele>
        <time>2014-05-22T10:47:27Z</time>
      </trkpt>
      <trkpt lat="44.49545" lon="5.62525">
        <ele>1347.91</ele>
        <time>2014-05-22T10:47:44Z</time>
      </trkpt>
      <trkpt lat="44.49537" lon="5.62523">
        <ele>1346.94</ele>
        <time>2014-05-22T10:47:53Z</time>
      </trkpt>
      <trkpt lat="44.49521" lon="5.62518">
        <ele>1346.46</ele>
        <time>2014-05-22T10:48:10Z</time>
      </trkpt>
      <trkpt lat="44.49504" lon="5.62509">
        <ele>1347.43</ele>
        <time>2014-05-22T10:48:28Z</time>
      </trkpt>
      <trkpt lat="44.49486" lon="5.62502">
        <ele>1347.91</ele>
        <time>2014-05-22T10:48:47Z</time>
      </trkpt>
      <trkpt lat="44.49459" lon="5.62501">
        <ele>1348.87</ele>
        <time>2014-05-22T10:49:10Z</time>
      </trkpt>
      <trkpt lat="44.49438" lon="5.62496">
        <ele>1345.5</ele>
        <time>2014-05-22T10:49:27Z</time>
      </trkpt>
      <trkpt lat="44.49429" lon="5.62488">
        <ele>1342.62</ele>
        <time>2014-05-22T10:49:40Z</time>
      </trkpt>
      <trkpt lat="44.49422" lon="5.62481">
        <ele>1339.25</ele>
        <time>2014-05-22T10:49:53Z</time>
      </trkpt>
      <trkpt lat="44.49412" lon="5.62477">
        <ele>1336.37</ele>
        <time>2014-05-22T10:50:06Z</time>
      </trkpt>
      <trkpt lat="44.49396" lon="5.62483">
        <ele>1333.01</ele>
        <time>2014-05-22T10:50:23Z</time>
      </trkpt>
      <trkpt lat="44.49388" lon="5.62485">
        <ele>1329.64</ele>
        <time>2014-05-22T10:50:36Z</time>
      </trkpt>
      <trkpt lat="44.49373" lon="5.62489">
        <ele>1326.76</ele>
        <time>2014-05-22T10:50:55Z</time>
      </trkpt>
      <trkpt lat="44.49371" lon="5.6249">
        <ele>1326.76</ele>
        <time>2014-05-22T10:50:56Z</time>
      </trkpt>
      <trkpt lat="44.49361" lon="5.62489">
        <ele>1325.31</ele>
        <time>2014-05-22T10:51:07Z</time>
      </trkpt>
      <trkpt lat="44.49345" lon="5.62492">
        <ele>1322.43</ele>
        <time>2014-05-22T10:51:27Z</time>
      </trkpt>
      <trkpt lat="44.49322" lon="5.6249">
        <ele>1320.99</ele>
        <time>2014-05-22T10:51:47Z</time>
      </trkpt>
      <trkpt lat="44.49305" lon="5.6249">
        <ele>1319.55</ele>
        <time>2014-05-22T10:52:06Z</time>
      </trkpt>
      <trkpt lat="44.49301" lon="5.62487">
        <ele>1319.55</ele>
        <time>2014-05-22T10:52:33Z</time>
      </trkpt>
      <trkpt lat="44.49298" lon="5.62488">
        <ele>1320.03</ele>
        <time>2014-05-22T10:53:01Z</time>
      </trkpt>
      <trkpt lat="44.49297" lon="5.62489">
        <ele>1320.51</ele>
        <time>2014-05-22T10:53:21Z</time>
      </trkpt>
      <trkpt lat="44.493" lon="5.62492">
        <ele>1320.99</ele>
        <time>2014-05-22T10:53:48Z</time>
      </trkpt>
      <trkpt lat="44.49301" lon="5.62489">
        <ele>1320.99</ele>
        <time>2014-05-22T10:54:13Z</time>
      </trkpt>
      <trkpt lat="44.493" lon="5.62491">
        <ele>1320.03</ele>
        <time>2014-05-22T10:54:18Z</time>
      </trkpt>
      <trkpt lat="44.49302" lon="5.62492">
        <ele>1323.39</ele>
        <time>2014-05-22T10:54:39Z</time>
      </trkpt>
      <trkpt lat="44.49298" lon="5.62488">
        <ele>1323.39</ele>
        <time>2014-05-22T10:55:07Z</time>
      </trkpt>
      <trkpt lat="44.493" lon="5.62489">
        <ele>1322.91</ele>
        <time>2014-05-22T10:55:37Z</time>
      </trkpt>
      <trkpt lat="44.49309" lon="5.62484">
        <ele>1323.39</ele>
        <time>2014-05-22T10:56:03Z</time>
      </trkpt>
      <trkpt lat="44.49301" lon="5.62489">
        <ele>1323.87</ele>
        <time>2014-05-22T10:56:30Z</time>
      </trkpt>
      <trkpt lat="44.4931" lon="5.62483">
        <ele>1322.43</ele>
        <time>2014-05-22T10:56:57Z</time>
      </trkpt>
      <trkpt lat="44.49306" lon="5.62489">
        <ele>1323.39</ele>
        <time>2014-05-22T10:57:21Z</time>
      </trkpt>
      <trkpt lat="44.49304" lon="5.62493">
        <ele>1327.24</ele>
        <time>2014-05-22T10:57:47Z</time>
      </trkpt>
      <trkpt lat="44.49304" lon="5.62493">
        <ele>1326.28</ele>
        <time>2014-05-22T10:57:48Z</time>
      </trkpt>
      <trkpt lat="44.49299" lon="5.62491">
        <ele>1323.87</ele>
        <time>2014-05-22T10:58:16Z</time>
      </trkpt>
      <trkpt lat="44.49278" lon="5.62481">
        <ele>1323.87</ele>
        <time>2014-05-22T10:58:35Z</time>
      </trkpt>
      <trkpt lat="44.49252" lon="5.62468">
        <ele>1325.8</ele>
        <time>2014-05-22T10:59:00Z</time>
      </trkpt>
      <trkpt lat="44.49234" lon="5.62459">
        <ele>1325.8</ele>
        <time>2014-05-22T10:59:18Z</time>
      </trkpt>
      <trkpt lat="44.49212" lon="5.62447">
        <ele>1325.31</ele>
        <time>2014-05-22T10:59:41Z</time>
      </trkpt>
      <trkpt lat="44.492" lon="5.62444">
        <ele>1325.31</ele>
        <time>2014-05-22T10:59:51Z</time>
      </trkpt>
      <trkpt lat="44.4919" lon="5.62444">
        <ele>1324.83</ele>
        <time>2014-05-22T11:00:04Z</time>
      </trkpt>
      <trkpt lat="44.4917" lon="5.62434">
        <ele>1326.28</ele>
        <time>2014-05-22T11:00:24Z</time>
      </trkpt>
      <trkpt lat="44.49152" lon="5.62422">
        <ele>1326.76</ele>
        <time>2014-05-22T11:00:44Z</time>
      </trkpt>
      <trkpt lat="44.49138" lon="5.62425">
        <ele>1324.35</ele>
        <time>2014-05-22T11:01:03Z</time>
      </trkpt>
      <trkpt lat="44.4912" lon="5.62425">
        <ele>1321.95</ele>
        <time>2014-05-22T11:01:20Z</time>
      </trkpt>
      <trkpt lat="44.49105" lon="5.62425">
        <ele>1319.55</ele>
        <time>2014-05-22T11:01:39Z</time>
      </trkpt>
      <trkpt lat="44.49093" lon="5.62428">
        <ele>1317.62</ele>
        <time>2014-05-22T11:01:52Z</time>
      </trkpt>
      <trkpt lat="44.49073" lon="5.62433">
        <ele>1316.18</ele>
        <time>2014-05-22T11:02:09Z</time>
      </trkpt>
      <trkpt lat="44.49055" lon="5.62439">
        <ele>1315.7</ele>
        <time>2014-05-22T11:02:26Z</time>
      </trkpt>
      <trkpt lat="44.49042" lon="5.6245">
        <ele>1312.82</ele>
        <time>2014-05-22T11:02:42Z</time>
      </trkpt>
      <trkpt lat="44.49038" lon="5.62458">
        <ele>1310.41</ele>
        <time>2014-05-22T11:02:55Z</time>
      </trkpt>
      <trkpt lat="44.49052" lon="5.62456">
        <ele>1307.05</ele>
        <time>2014-05-22T11:03:12Z</time>
      </trkpt>
      <trkpt lat="44.49073" lon="5.62462">
        <ele>1304.65</ele>
        <time>2014-05-22T11:03:33Z</time>
      </trkpt>
      <trkpt lat="44.4909" lon="5.62464">
        <ele>1302.72</ele>
        <time>2014-05-22T11:03:53Z</time>
      </trkpt>
      <trkpt lat="44.49106" lon="5.62474">
        <ele>1299.84</ele>
        <time>2014-05-22T11:04:11Z</time>
      </trkpt>
      <trkpt lat="44.49114" lon="5.62482">
        <ele>1296.96</ele>
        <time>2014-05-22T11:04:23Z</time>
      </trkpt>
      <trkpt lat="44.4912" lon="5.62493">
        <ele>1295.03</ele>
        <time>2014-05-22T11:04:34Z</time>
      </trkpt>
      <trkpt lat="44.49105" lon="5.62501">
        <ele>1294.55</ele>
        <time>2014-05-22T11:04:49Z</time>
      </trkpt>
      <trkpt lat="44.49094" lon="5.62502">
        <ele>1293.11</ele>
        <time>2014-05-22T11:05:04Z</time>
      </trkpt>
      <trkpt lat="44.49078" lon="5.62505">
        <ele>1290.71</ele>
        <time>2014-05-22T11:05:22Z</time>
      </trkpt>
      <trkpt lat="44.49063" lon="5.62515">
        <ele>1288.3</ele>
        <time>2014-05-22T11:05:39Z</time>
      </trkpt>
      <trkpt lat="44.49053" lon="5.62538">
        <ele>1287.34</ele>
        <time>2014-05-22T11:05:58Z</time>
      </trkpt>
      <trkpt lat="44.49063" lon="5.6256">
        <ele>1284.46</ele>
        <time>2014-05-22T11:06:19Z</time>
      </trkpt>
      <trkpt lat="44.49069" lon="5.62588">
        <ele>1282.06</ele>
        <time>2014-05-22T11:06:41Z</time>
      </trkpt>
      <trkpt lat="44.49062" lon="5.62612">
        <ele>1280.13</ele>
        <time>2014-05-22T11:07:00Z</time>
      </trkpt>
      <trkpt lat="44.49063" lon="5.62631">
        <ele>1276.77</ele>
        <time>2014-05-22T11:07:16Z</time>
      </trkpt>
      <trkpt lat="44.49067" lon="5.62653">
        <ele>1273.4</ele>
        <time>2014-05-22T11:07:36Z</time>
      </trkpt>
      <trkpt lat="44.49065" lon="5.62673">
        <ele>1270.52</ele>
        <time>2014-05-22T11:07:55Z</time>
      </trkpt>
      <trkpt lat="44.4907" lon="5.6269">
        <ele>1268.12</ele>
        <time>2014-05-22T11:08:13Z</time>
      </trkpt>
      <trkpt lat="44.49073" lon="5.62707">
        <ele>1264.75</ele>
        <time>2014-05-22T11:08:27Z</time>
      </trkpt>
      <trkpt lat="44.49077" lon="5.62715">
        <ele>1261.87</ele>
        <time>2014-05-22T11:08:37Z</time>
      </trkpt>
      <trkpt lat="44.49089" lon="5.62723">
        <ele>1258.98</ele>
        <time>2014-05-22T11:08:58Z</time>
      </trkpt>
      <trkpt lat="44.491" lon="5.62711">
        <ele>1255.62</ele>
        <time>2014-05-22T11:09:17Z</time>
      </trkpt>
      <trkpt lat="44.49116" lon="5.62705">
        <ele>1252.25</ele>
        <time>2014-05-22T11:09:35Z</time>
      </trkpt>
      <trkpt lat="44.49134" lon="5.62718">
        <ele>1249.85</ele>
        <time>2014-05-22T11:09:57Z</time>
      </trkpt>
      <trkpt lat="44.4914" lon="5.6273">
        <ele>1246.97</ele>
        <time>2014-05-22T11:10:16Z</time>
      </trkpt>
      <trkpt lat="44.49158" lon="5.62741">
        <ele>1244.08</ele>
        <time>2014-05-22T11:10:38Z</time>
      </trkpt>
      <trkpt lat="44.49171" lon="5.62761">
        <ele>1242.16</ele>
        <time>2014-05-22T11:10:56Z</time>
      </trkpt>
      <trkpt lat="44.49185" lon="5.62776">
        <ele>1239.28</ele>
        <time>2014-05-22T11:11:16Z</time>
      </trkpt>
      <trkpt lat="44.49194" lon="5.6279">
        <ele>1236.39</ele>
        <time>2014-05-22T11:11:32Z</time>
      </trkpt>
      <trkpt lat="44.49195" lon="5.62813">
        <ele>1233.51</ele>
        <time>2014-05-22T11:11:50Z</time>
      </trkpt>
      <trkpt lat="44.49186" lon="5.62831">
        <ele>1231.11</ele>
        <time>2014-05-22T11:12:06Z</time>
      </trkpt>
      <trkpt lat="44.49183" lon="5.62852">
        <ele>1228.22</ele>
        <time>2014-05-22T11:12:22Z</time>
      </trkpt>
      <trkpt lat="44.49193" lon="5.62867">
        <ele>1226.3</ele>
        <time>2014-05-22T11:12:40Z</time>
      </trkpt>
      <trkpt lat="44.49208" lon="5.62873">
        <ele>1225.82</ele>
        <time>2014-05-22T11:13:00Z</time>
      </trkpt>
      <trkpt lat="44.49231" lon="5.62888">
        <ele>1225.34</ele>
        <time>2014-05-22T11:13:20Z</time>
      </trkpt>
      <trkpt lat="44.49248" lon="5.62897">
        <ele>1223.9</ele>
        <time>2014-05-22T11:13:36Z</time>
      </trkpt>
      <trkpt lat="44.49266" lon="5.62916">
        <ele>1223.9</ele>
        <time>2014-05-22T11:13:58Z</time>
      </trkpt>
      <trkpt lat="44.49264" lon="5.62918">
        <ele>1223.9</ele>
        <time>2014-05-22T11:14:17Z</time>
      </trkpt>
      <trkpt lat="44.49264" lon="5.62918">
        <ele>1223.42</ele>
        <time>2014-05-22T11:14:54Z</time>
      </trkpt>
      <trkpt lat="44.49266" lon="5.6292">
        <ele>1223.42</ele>
        <time>2014-05-22T11:15:16Z</time>
      </trkpt>
      <trkpt lat="44.49264" lon="5.6292">
        <ele>1222.93</ele>
        <time>2014-05-22T11:15:49Z</time>
      </trkpt>
      <trkpt lat="44.4927" lon="5.62919">
        <ele>1222.93</ele>
        <time>2014-05-22T11:16:18Z</time>
      </trkpt>
      <trkpt lat="44.49269" lon="5.62918">
        <ele>1223.42</ele>
        <time>2014-05-22T11:16:50Z</time>
      </trkpt>
      <trkpt lat="44.49269" lon="5.62923">
        <ele>1223.42</ele>
        <time>2014-05-22T11:17:21Z</time>
      </trkpt>
      <trkpt lat="44.4928" lon="5.62924">
        <ele>1223.9</ele>
        <time>2014-05-22T11:17:40Z</time>
      </trkpt>
      <trkpt lat="44.49298" lon="5.62936">
        <ele>1225.82</ele>
        <time>2014-05-22T11:17:58Z</time>
      </trkpt>
      <trkpt lat="44.49307" lon="5.62952">
        <ele>1225.34</ele>
        <time>2014-05-22T11:18:15Z</time>
      </trkpt>
      <trkpt lat="44.49319" lon="5.62962">
        <ele>1225.34</ele>
        <time>2014-05-22T11:18:28Z</time>
      </trkpt>
      <trkpt lat="44.49329" lon="5.62979">
        <ele>1224.38</ele>
        <time>2014-05-22T11:18:46Z</time>
      </trkpt>
      <trkpt lat="44.49333" lon="5.62988">
        <ele>1223.42</ele>
        <time>2014-05-22T11:19:02Z</time>
      </trkpt>
      <trkpt lat="44.49348" lon="5.63005">
        <ele>1222.45</ele>
        <time>2014-05-22T11:19:22Z</time>
      </trkpt>
      <trkpt lat="44.49361" lon="5.63016">
        <ele>1221.97</ele>
        <time>2014-05-22T11:19:44Z</time>
      </trkpt>
      <trkpt lat="44.4938" lon="5.63018">
        <ele>1222.93</ele>
        <time>2014-05-22T11:20:01Z</time>
      </trkpt>
      <trkpt lat="44.49403" lon="5.63031">
        <ele>1222.93</ele>
        <time>2014-05-22T11:20:21Z</time>
      </trkpt>
      <trkpt lat="44.49421" lon="5.63053">
        <ele>1221.97</ele>
        <time>2014-05-22T11:20:41Z</time>
      </trkpt>
      <trkpt lat="44.49425" lon="5.63059">
        <ele>1222.45</ele>
        <time>2014-05-22T11:20:46Z</time>
      </trkpt>
      <trkpt lat="44.49437" lon="5.63086">
        <ele>1221.49</ele>
        <time>2014-05-22T11:21:06Z</time>
      </trkpt>
      <trkpt lat="44.49441" lon="5.63104">
        <ele>1219.57</ele>
        <time>2014-05-22T11:21:21Z</time>
      </trkpt>
      <trkpt lat="44.49447" lon="5.63121">
        <ele>1218.61</ele>
        <time>2014-05-22T11:21:35Z</time>
      </trkpt>
      <trkpt lat="44.49462" lon="5.63136">
        <ele>1218.13</ele>
        <time>2014-05-22T11:21:51Z</time>
      </trkpt>
      <trkpt lat="44.49478" lon="5.63155">
        <ele>1217.17</ele>
        <time>2014-05-22T11:22:10Z</time>
      </trkpt>
      <trkpt lat="44.4949" lon="5.63172">
        <ele>1215.72</ele>
        <time>2014-05-22T11:22:27Z</time>
      </trkpt>
      <trkpt lat="44.49498" lon="5.63186">
        <ele>1214.28</ele>
        <time>2014-05-22T11:22:41Z</time>
      </trkpt>
      <trkpt lat="44.49504" lon="5.63202">
        <ele>1213.8</ele>
        <time>2014-05-22T11:22:56Z</time>
      </trkpt>
      <trkpt lat="44.49512" lon="5.63216">
        <ele>1212.84</ele>
        <time>2014-05-22T11:23:11Z</time>
      </trkpt>
      <trkpt lat="44.4952" lon="5.6323">
        <ele>1210.44</ele>
        <time>2014-05-22T11:23:25Z</time>
      </trkpt>
      <trkpt lat="44.49527" lon="5.6324">
        <ele>1207.55</ele>
        <time>2014-05-22T11:23:39Z</time>
      </trkpt>
      <trkpt lat="44.49534" lon="5.63249">
        <ele>1205.15</ele>
        <time>2014-05-22T11:23:52Z</time>
      </trkpt>
      <trkpt lat="44.49539" lon="5.63263">
        <ele>1202.27</ele>
        <time>2014-05-22T11:24:08Z</time>
      </trkpt>
      <trkpt lat="44.49545" lon="5.63289">
        <ele>1200.34</ele>
        <time>2014-05-22T11:24:29Z</time>
      </trkpt>
      <trkpt lat="44.49551" lon="5.6331">
        <ele>1199.86</ele>
        <time>2014-05-22T11:24:44Z</time>
      </trkpt>
      <trkpt lat="44.49561" lon="5.63333">
        <ele>1197.46</ele>
        <time>2014-05-22T11:25:04Z</time>
      </trkpt>
      <trkpt lat="44.49573" lon="5.63342">
        <ele>1195.54</ele>
        <time>2014-05-22T11:25:22Z</time>
      </trkpt>
      <trkpt lat="44.49581" lon="5.63355">
        <ele>1192.17</ele>
        <time>2014-05-22T11:25:37Z</time>
      </trkpt>
      <trkpt lat="44.49588" lon="5.63374">
        <ele>1189.77</ele>
        <time>2014-05-22T11:25:56Z</time>
      </trkpt>
      <trkpt lat="44.49594" lon="5.63393">
        <ele>1187.37</ele>
        <time>2014-05-22T11:26:15Z</time>
      </trkpt>
      <trkpt lat="44.49602" lon="5.63411">
        <ele>1185.44</ele>
        <time>2014-05-22T11:26:33Z</time>
      </trkpt>
      <trkpt lat="44.49606" lon="5.63426">
        <ele>1182.56</ele>
        <time>2014-05-22T11:26:46Z</time>
      </trkpt>
      <trkpt lat="44.49616" lon="5.63444">
        <ele>1180.16</ele>
        <time>2014-05-22T11:27:04Z</time>
      </trkpt>
      <trkpt lat="44.49619" lon="5.63465">
        <ele>1177.75</ele>
        <time>2014-05-22T11:27:23Z</time>
      </trkpt>
      <trkpt lat="44.49617" lon="5.63487">
        <ele>1174.87</ele>
        <time>2014-05-22T11:27:40Z</time>
      </trkpt>
      <trkpt lat="44.49623" lon="5.63503">
        <ele>1172.47</ele>
        <time>2014-05-22T11:27:55Z</time>
      </trkpt>
      <trkpt lat="44.49627" lon="5.6351">
        <ele>1171.5</ele>
        <time>2014-05-22T11:28:07Z</time>
      </trkpt>
      <trkpt lat="44.49634" lon="5.63536">
        <ele>1168.62</ele>
        <time>2014-05-22T11:28:25Z</time>
      </trkpt>
      <trkpt lat="44.49647" lon="5.63557">
        <ele>1166.22</ele>
        <time>2014-05-22T11:28:44Z</time>
      </trkpt>
      <trkpt lat="44.49651" lon="5.63578">
        <ele>1163.81</ele>
        <time>2014-05-22T11:29:01Z</time>
      </trkpt>
      <trkpt lat="44.49651" lon="5.63581">
        <ele>1162.37</ele>
        <time>2014-05-22T11:29:04Z</time>
      </trkpt>
      <trkpt lat="44.49656" lon="5.63599">
        <ele>1161.41</ele>
        <time>2014-05-22T11:29:20Z</time>
      </trkpt>
      <trkpt lat="44.49658" lon="5.63618">
        <ele>1158.05</ele>
        <time>2014-05-22T11:29:35Z</time>
      </trkpt>
      <trkpt lat="44.49669" lon="5.63639">
        <ele>1156.12</ele>
        <time>2014-05-22T11:29:54Z</time>
      </trkpt>
      <trkpt lat="44.49676" lon="5.63662">
        <ele>1152.76</ele>
        <time>2014-05-22T11:30:15Z</time>
      </trkpt>
      <trkpt lat="44.49682" lon="5.63679">
        <ele>1151.32</ele>
        <time>2014-05-22T11:30:31Z</time>
      </trkpt>
      <trkpt lat="44.49687" lon="5.63688">
        <ele>1149.87</ele>
        <time>2014-05-22T11:30:47Z</time>
      </trkpt>
      <trkpt lat="44.4969" lon="5.63701">
        <ele>1148.43</ele>
        <time>2014-05-22T11:31:01Z</time>
      </trkpt>
      <trkpt lat="44.49685" lon="5.63719">
        <ele>1145.07</ele>
        <time>2014-05-22T11:31:17Z</time>
      </trkpt>
      <trkpt lat="44.49682" lon="5.63731">
        <ele>1142.66</ele>
        <time>2014-05-22T11:31:28Z</time>
      </trkpt>
      <trkpt lat="44.49681" lon="5.63744">
        <ele>1141.22</ele>
        <time>2014-05-22T11:31:39Z</time>
      </trkpt>
      <trkpt lat="44.49678" lon="5.63763">
        <ele>1139.3</ele>
        <time>2014-05-22T11:31:52Z</time>
      </trkpt>
      <trkpt lat="44.49672" lon="5.63789">
        <ele>1137.38</ele>
        <time>2014-05-22T11:32:11Z</time>
      </trkpt>
      <trkpt lat="44.49667" lon="5.63815">
        <ele>1134.97</ele>
        <time>2014-05-22T11:32:28Z</time>
      </trkpt>
      <trkpt lat="44.49665" lon="5.63836">
        <ele>1131.61</ele>
        <time>2014-05-22T11:32:44Z</time>
      </trkpt>
      <trkpt lat="44.49662" lon="5.63855">
        <ele>1128.73</ele>
        <time>2014-05-22T11:32:59Z</time>
      </trkpt>
      <trkpt lat="44.49655" lon="5.63875">
        <ele>1125.36</ele>
        <time>2014-05-22T11:33:15Z</time>
      </trkpt>
      <trkpt lat="44.49653" lon="5.6388">
        <ele>1124.4</ele>
        <time>2014-05-22T11:33:19Z</time>
      </trkpt>
      <trkpt lat="44.49647" lon="5.63898">
        <ele>1121.03</ele>
        <time>2014-05-22T11:33:33Z</time>
      </trkpt>
      <trkpt lat="44.49642" lon="5.63908">
        <ele>1119.59</ele>
        <time>2014-05-22T11:33:48Z</time>
      </trkpt>
      <trkpt lat="44.49639" lon="5.63907">
        <ele>1120.07</ele>
        <time>2014-05-22T11:34:15Z</time>
      </trkpt>
      <trkpt lat="44.49638" lon="5.63908">
        <ele>1119.59</ele>
        <time>2014-05-22T11:34:41Z</time>
      </trkpt>
      <trkpt lat="44.4964" lon="5.63904">
        <ele>1118.63</ele>
        <time>2014-05-22T11:34:55Z</time>
      </trkpt>
      <trkpt lat="44.49637" lon="5.63906">
        <ele>1119.11</ele>
        <time>2014-05-22T11:35:29Z</time>
      </trkpt>
      <trkpt lat="44.49635" lon="5.63908">
        <ele>1120.07</ele>
        <time>2014-05-22T11:35:44Z</time>
      </trkpt>
      <trkpt lat="44.49634" lon="5.63904">
        <ele>1122</ele>
        <time>2014-05-22T11:36:09Z</time>
      </trkpt>
      <trkpt lat="44.49633" lon="5.63906">
        <ele>1120.55</ele>
        <time>2014-05-22T11:36:43Z</time>
      </trkpt>
      <trkpt lat="44.49636" lon="5.63909">
        <ele>1121.03</ele>
        <time>2014-05-22T11:37:09Z</time>
      </trkpt>
      <trkpt lat="44.49637" lon="5.63906">
        <ele>1122</ele>
        <time>2014-05-22T11:37:31Z</time>
      </trkpt>
      <trkpt lat="44.49638" lon="5.63904">
        <ele>1122</ele>
        <time>2014-05-22T11:37:56Z</time>
      </trkpt>
      <trkpt lat="44.49637" lon="5.63904">
        <ele>1122.48</ele>
        <time>2014-05-22T11:38:11Z</time>
      </trkpt>
      <trkpt lat="44.49638" lon="5.63905">
        <ele>1121.52</ele>
        <time>2014-05-22T11:38:13Z</time>
      </trkpt>
      <trkpt lat="44.49637" lon="5.63913">
        <ele>1121.03</ele>
        <time>2014-05-22T11:38:33Z</time>
      </trkpt>
      <trkpt lat="44.49628" lon="5.63931">
        <ele>1118.63</ele>
        <time>2014-05-22T11:38:52Z</time>
      </trkpt>
      <trkpt lat="44.49623" lon="5.63947">
        <ele>1116.71</ele>
        <time>2014-05-22T11:39:11Z</time>
      </trkpt>
      <trkpt lat="44.49615" lon="5.6395">
        <ele>1116.23</ele>
        <time>2014-05-22T11:39:26Z</time>
      </trkpt>
      <trkpt lat="44.49618" lon="5.63961">
        <ele>1116.71</ele>
        <time>2014-05-22T11:39:54Z</time>
      </trkpt>
      <trkpt lat="44.49611" lon="5.63974">
        <ele>1114.79</ele>
        <time>2014-05-22T11:40:10Z</time>
      </trkpt>
      <trkpt lat="44.49607" lon="5.63978">
        <ele>1114.31</ele>
        <time>2014-05-22T11:40:14Z</time>
      </trkpt>
      <trkpt lat="44.49601" lon="5.63993">
        <ele>1112.38</ele>
        <time>2014-05-22T11:40:27Z</time>
      </trkpt>
      <trkpt lat="44.49593" lon="5.64009">
        <ele>1110.94</ele>
        <time>2014-05-22T11:40:41Z</time>
      </trkpt>
      <trkpt lat="44.49582" lon="5.64032">
        <ele>1109.5</ele>
        <time>2014-05-22T11:41:01Z</time>
      </trkpt>
      <trkpt lat="44.49572" lon="5.64053">
        <ele>1107.1</ele>
        <time>2014-05-22T11:41:18Z</time>
      </trkpt>
      <trkpt lat="44.49563" lon="5.64067">
        <ele>1105.65</ele>
        <time>2014-05-22T11:41:29Z</time>
      </trkpt>
      <trkpt lat="44.4956" lon="5.64073">
        <ele>1105.17</ele>
        <time>2014-05-22T11:41:33Z</time>
      </trkpt>
      <trkpt lat="44.49545" lon="5.64087">
        <ele>1103.25</ele>
        <time>2014-05-22T11:41:48Z</time>
      </trkpt>
      <trkpt lat="44.49544" lon="5.64091">
        <ele>1103.73</ele>
        <time>2014-05-22T11:41:51Z</time>
      </trkpt>
      <trkpt lat="44.49538" lon="5.641">
        <ele>1102.77</ele>
        <time>2014-05-22T11:41:58Z</time>
      </trkpt>
      <trkpt lat="44.49521" lon="5.64125">
        <ele>1101.81</ele>
        <time>2014-05-22T11:42:17Z</time>
      </trkpt>
      <trkpt lat="44.49517" lon="5.64134">
        <ele>1101.33</ele>
        <time>2014-05-22T11:42:24Z</time>
      </trkpt>
      <trkpt lat="44.49507" lon="5.64153">
        <ele>1100.85</ele>
        <time>2014-05-22T11:42:42Z</time>
      </trkpt>
      <trkpt lat="44.49498" lon="5.64172">
        <ele>1100.37</ele>
        <time>2014-05-22T11:42:58Z</time>
      </trkpt>
      <trkpt lat="44.49486" lon="5.64199">
        <ele>1099.4</ele>
        <time>2014-05-22T11:43:16Z</time>
      </trkpt>
      <trkpt lat="44.49477" lon="5.64214">
        <ele>1098.92</ele>
        <time>2014-05-22T11:43:29Z</time>
      </trkpt>
      <trkpt lat="44.49468" lon="5.64233">
        <ele>1097.96</ele>
        <time>2014-05-22T11:43:45Z</time>
      </trkpt>
      <trkpt lat="44.49457" lon="5.64254">
        <ele>1097.48</ele>
        <time>2014-05-22T11:44:02Z</time>
      </trkpt>
      <trkpt lat="44.49446" lon="5.64274">
        <ele>1097</ele>
        <time>2014-05-22T11:44:18Z</time>
      </trkpt>
      <trkpt lat="44.49443" lon="5.64299">
        <ele>1096.04</ele>
        <time>2014-05-22T11:44:35Z</time>
      </trkpt>
      <trkpt lat="44.49434" lon="5.64325">
        <ele>1094.6</ele>
        <time>2014-05-22T11:44:53Z</time>
      </trkpt>
      <trkpt lat="44.49423" lon="5.64343">
        <ele>1093.16</ele>
        <time>2014-05-22T11:45:08Z</time>
      </trkpt>
      <trkpt lat="44.49413" lon="5.64358">
        <ele>1092.2</ele>
        <time>2014-05-22T11:45:22Z</time>
      </trkpt>
      <trkpt lat="44.49403" lon="5.64389">
        <ele>1091.23</ele>
        <time>2014-05-22T11:45:43Z</time>
      </trkpt>
      <trkpt lat="44.494" lon="5.64414">
        <ele>1090.27</ele>
        <time>2014-05-22T11:45:59Z</time>
      </trkpt>
      <trkpt lat="44.49398" lon="5.64441">
        <ele>1088.35</ele>
        <time>2014-05-22T11:46:17Z</time>
      </trkpt>
      <trkpt lat="44.49392" lon="5.64457">
        <ele>1086.91</ele>
        <time>2014-05-22T11:46:29Z</time>
      </trkpt>
      <trkpt lat="44.49381" lon="5.64482">
        <ele>1085.95</ele>
        <time>2014-05-22T11:46:45Z</time>
      </trkpt>
      <trkpt lat="44.49373" lon="5.64508">
        <ele>1085.47</ele>
        <time>2014-05-22T11:47:02Z</time>
      </trkpt>
      <trkpt lat="44.49361" lon="5.64534">
        <ele>1084.02</ele>
        <time>2014-05-22T11:47:20Z</time>
      </trkpt>
      <trkpt lat="44.49356" lon="5.64557">
        <ele>1083.54</ele>
        <time>2014-05-22T11:47:35Z</time>
      </trkpt>
      <trkpt lat="44.49353" lon="5.64587">
        <ele>1082.58</ele>
        <time>2014-05-22T11:47:54Z</time>
      </trkpt>
      <trkpt lat="44.49349" lon="5.64614">
        <ele>1082.1</ele>
        <time>2014-05-22T11:48:11Z</time>
      </trkpt>
      <trkpt lat="44.4934" lon="5.64642">
        <ele>1080.66</ele>
        <time>2014-05-22T11:48:29Z</time>
      </trkpt>
      <trkpt lat="44.49329" lon="5.64668">
        <ele>1080.18</ele>
        <time>2014-05-22T11:48:48Z</time>
      </trkpt>
      <trkpt lat="44.4932" lon="5.6469">
        <ele>1080.18</ele>
        <time>2014-05-22T11:49:04Z</time>
      </trkpt>
      <trkpt lat="44.4931" lon="5.64713">
        <ele>1079.22</ele>
        <time>2014-05-22T11:49:21Z</time>
      </trkpt>
      <trkpt lat="44.49298" lon="5.64734">
        <ele>1078.26</ele>
        <time>2014-05-22T11:49:38Z</time>
      </trkpt>
      <trkpt lat="44.49282" lon="5.64748">
        <ele>1077.29</ele>
        <time>2014-05-22T11:49:54Z</time>
      </trkpt>
      <trkpt lat="44.49265" lon="5.64758">
        <ele>1075.37</ele>
        <time>2014-05-22T11:50:10Z</time>
      </trkpt>
      <trkpt lat="44.49259" lon="5.64769">
        <ele>1074.41</ele>
        <time>2014-05-22T11:50:19Z</time>
      </trkpt>
      <trkpt lat="44.4925" lon="5.64791">
        <ele>1072.49</ele>
        <time>2014-05-22T11:50:35Z</time>
      </trkpt>
      <trkpt lat="44.49243" lon="5.64815">
        <ele>1070.57</ele>
        <time>2014-05-22T11:50:51Z</time>
      </trkpt>
      <trkpt lat="44.49232" lon="5.64841">
        <ele>1068.64</ele>
        <time>2014-05-22T11:51:08Z</time>
      </trkpt>
      <trkpt lat="44.49218" lon="5.64861">
        <ele>1067.68</ele>
        <time>2014-05-22T11:51:26Z</time>
      </trkpt>
      <trkpt lat="44.49213" lon="5.64881">
        <ele>1067.68</ele>
        <time>2014-05-22T11:51:41Z</time>
      </trkpt>
      <trkpt lat="44.49209" lon="5.64905">
        <ele>1066.72</ele>
        <time>2014-05-22T11:51:55Z</time>
      </trkpt>
      <trkpt lat="44.492" lon="5.64933">
        <ele>1066.24</ele>
        <time>2014-05-22T11:52:12Z</time>
      </trkpt>
      <trkpt lat="44.49196" lon="5.64967">
        <ele>1065.76</ele>
        <time>2014-05-22T11:52:33Z</time>
      </trkpt>
      <trkpt lat="44.49195" lon="5.64999">
        <ele>1064.8</ele>
        <time>2014-05-22T11:52:53Z</time>
      </trkpt>
      <trkpt lat="44.49192" lon="5.65026">
        <ele>1063.84</ele>
        <time>2014-05-22T11:53:10Z</time>
      </trkpt>
      <trkpt lat="44.49182" lon="5.65054">
        <ele>1063.36</ele>
        <time>2014-05-22T11:53:28Z</time>
      </trkpt>
      <trkpt lat="44.49179" lon="5.65083">
        <ele>1062.87</ele>
        <time>2014-05-22T11:53:45Z</time>
      </trkpt>
      <trkpt lat="44.49175" lon="5.65111">
        <ele>1063.36</ele>
        <time>2014-05-22T11:54:03Z</time>
      </trkpt>
      <trkpt lat="44.49167" lon="5.65137">
        <ele>1063.84</ele>
        <time>2014-05-22T11:54:20Z</time>
      </trkpt>
      <trkpt lat="44.49163" lon="5.65165">
        <ele>1062.39</ele>
        <time>2014-05-22T11:54:38Z</time>
      </trkpt>
      <trkpt lat="44.49161" lon="5.65197">
        <ele>1063.84</ele>
        <time>2014-05-22T11:54:59Z</time>
      </trkpt>
      <trkpt lat="44.49159" lon="5.65231">
        <ele>1063.84</ele>
        <time>2014-05-22T11:55:19Z</time>
      </trkpt>
      <trkpt lat="44.49158" lon="5.6526">
        <ele>1063.84</ele>
        <time>2014-05-22T11:55:39Z</time>
      </trkpt>
      <trkpt lat="44.49149" lon="5.65281">
        <ele>1065.28</ele>
        <time>2014-05-22T11:55:54Z</time>
      </trkpt>
      <trkpt lat="44.49141" lon="5.65298">
        <ele>1066.24</ele>
        <time>2014-05-22T11:56:09Z</time>
      </trkpt>
      <trkpt lat="44.49139" lon="5.65307">
        <ele>1067.2</ele>
        <time>2014-05-22T11:56:27Z</time>
      </trkpt>
      <trkpt lat="44.49136" lon="5.6531">
        <ele>1067.2</ele>
        <time>2014-05-22T11:56:50Z</time>
      </trkpt>
      <trkpt lat="44.49137" lon="5.6531">
        <ele>1067.2</ele>
        <time>2014-05-22T11:57:07Z</time>
      </trkpt>
      <trkpt lat="44.4914" lon="5.65308">
        <ele>1067.2</ele>
        <time>2014-05-22T11:57:28Z</time>
      </trkpt>
      <trkpt lat="44.49136" lon="5.65309">
        <ele>1067.2</ele>
        <time>2014-05-22T11:57:43Z</time>
      </trkpt>
      <trkpt lat="44.49138" lon="5.6531">
        <ele>1067.68</ele>
        <time>2014-05-22T11:57:58Z</time>
      </trkpt>
      <trkpt lat="44.49138" lon="5.65306">
        <ele>1067.68</ele>
        <time>2014-05-22T11:58:18Z</time>
      </trkpt>
      <trkpt lat="44.49137" lon="5.65307">
        <ele>1067.68</ele>
        <time>2014-05-22T11:58:29Z</time>
      </trkpt>
      <trkpt lat="44.49134" lon="5.6531">
        <ele>1066.72</ele>
        <time>2014-05-22T11:58:43Z</time>
      </trkpt>
      <trkpt lat="44.49138" lon="5.65309">
        <ele>1067.2</ele>
        <time>2014-05-22T11:59:07Z</time>
      </trkpt>
      <trkpt lat="44.49142" lon="5.65308">
        <ele>1066.72</ele>
        <time>2014-05-22T11:59:35Z</time>
      </trkpt>
      <trkpt lat="44.49139" lon="5.6531">
        <ele>1066.72</ele>
        <time>2014-05-22T12:00:06Z</time>
      </trkpt>
      <trkpt lat="44.49137" lon="5.65314">
        <ele>1066.72</ele>
        <time>2014-05-22T12:00:30Z</time>
      </trkpt>
      <trkpt lat="44.49138" lon="5.65311">
        <ele>1066.24</ele>
        <time>2014-05-22T12:00:56Z</time>
      </trkpt>
      <trkpt lat="44.4914" lon="5.65315">
        <ele>1066.72</ele>
        <time>2014-05-22T12:01:22Z</time>
      </trkpt>
      <trkpt lat="44.49136" lon="5.65306">
        <ele>1066.72</ele>
        <time>2014-05-22T12:01:47Z</time>
      </trkpt>
      <trkpt lat="44.49137" lon="5.65304">
        <ele>1066.72</ele>
        <time>2014-05-22T12:02:08Z</time>
      </trkpt>
      <trkpt lat="44.49139" lon="5.6531">
        <ele>1066.72</ele>
        <time>2014-05-22T12:02:33Z</time>
      </trkpt>
      <trkpt lat="44.4914" lon="5.65307">
        <ele>1066.72</ele>
        <time>2014-05-22T12:03:06Z</time>
      </trkpt>
      <trkpt lat="44.49141" lon="5.65306">
        <ele>1067.2</ele>
        <time>2014-05-22T12:03:28Z</time>
      </trkpt>
      <trkpt lat="44.4914" lon="5.65307">
        <ele>1066.72</ele>
        <time>2014-05-22T12:03:55Z</time>
      </trkpt>
      <trkpt lat="44.49135" lon="5.65323">
        <ele>1067.2</ele>
        <time>2014-05-22T12:04:13Z</time>
      </trkpt>
      <trkpt lat="44.49122" lon="5.65346">
        <ele>1067.2</ele>
        <time>2014-05-22T12:04:31Z</time>
      </trkpt>
      <trkpt lat="44.4911" lon="5.65363">
        <ele>1067.2</ele>
        <time>2014-05-22T12:04:47Z</time>
      </trkpt>
      <trkpt lat="44.49096" lon="5.65382">
        <ele>1067.2</ele>
        <time>2014-05-22T12:05:05Z</time>
      </trkpt>
      <trkpt lat="44.49083" lon="5.65399">
        <ele>1068.16</ele>
        <time>2014-05-22T12:05:22Z</time>
      </trkpt>
      <trkpt lat="44.49067" lon="5.65415">
        <ele>1069.12</ele>
        <time>2014-05-22T12:05:39Z</time>
      </trkpt>
      <trkpt lat="44.49049" lon="5.65426">
        <ele>1068.64</ele>
        <time>2014-05-22T12:05:55Z</time>
      </trkpt>
      <trkpt lat="44.49031" lon="5.65439">
        <ele>1069.12</ele>
        <time>2014-05-22T12:06:12Z</time>
      </trkpt>
      <trkpt lat="44.49009" lon="5.65449">
        <ele>1069.12</ele>
        <time>2014-05-22T12:06:32Z</time>
      </trkpt>
      <trkpt lat="44.48991" lon="5.65458">
        <ele>1068.64</ele>
        <time>2014-05-22T12:06:48Z</time>
      </trkpt>
      <trkpt lat="44.48969" lon="5.65464">
        <ele>1066.24</ele>
        <time>2014-05-22T12:07:07Z</time>
      </trkpt>
      <trkpt lat="44.48947" lon="5.6547">
        <ele>1064.8</ele>
        <time>2014-05-22T12:07:24Z</time>
      </trkpt>
      <trkpt lat="44.48923" lon="5.65479">
        <ele>1062.39</ele>
        <time>2014-05-22T12:07:45Z</time>
      </trkpt>
      <trkpt lat="44.48897" lon="5.65495">
        <ele>1060.95</ele>
        <time>2014-05-22T12:08:07Z</time>
      </trkpt>
      <trkpt lat="44.48874" lon="5.65512">
        <ele>1058.07</ele>
        <time>2014-05-22T12:08:29Z</time>
      </trkpt>
      <trkpt lat="44.48857" lon="5.6553">
        <ele>1056.15</ele>
        <time>2014-05-22T12:08:47Z</time>
      </trkpt>
      <trkpt lat="44.48839" lon="5.6555">
        <ele>1054.7</ele>
        <time>2014-05-22T12:09:05Z</time>
      </trkpt>
      <trkpt lat="44.48826" lon="5.65569">
        <ele>1052.78</ele>
        <time>2014-05-22T12:09:21Z</time>
      </trkpt>
      <trkpt lat="44.48819" lon="5.6558">
        <ele>1052.3</ele>
        <time>2014-05-22T12:09:29Z</time>
      </trkpt>
      <trkpt lat="44.48798" lon="5.65589">
        <ele>1050.38</ele>
        <time>2014-05-22T12:09:47Z</time>
      </trkpt>
      <trkpt lat="44.48793" lon="5.65592">
        <ele>1049.9</ele>
        <time>2014-05-22T12:09:52Z</time>
      </trkpt>
      <trkpt lat="44.48783" lon="5.65596">
        <ele>1049.42</ele>
        <time>2014-05-22T12:10:00Z</time>
      </trkpt>
      <trkpt lat="44.48777" lon="5.65598">
        <ele>1048.94</ele>
        <time>2014-05-22T12:10:05Z</time>
      </trkpt>
      <trkpt lat="44.48768" lon="5.65604">
        <ele>1047.97</ele>
        <time>2014-05-22T12:10:13Z</time>
      </trkpt>
      <trkpt lat="44.48747" lon="5.65615">
        <ele>1046.05</ele>
        <time>2014-05-22T12:10:31Z</time>
      </trkpt>
      <trkpt lat="44.48731" lon="5.6562">
        <ele>1045.09</ele>
        <time>2014-05-22T12:10:45Z</time>
      </trkpt>
      <trkpt lat="44.48729" lon="5.65621">
        <ele>1045.09</ele>
        <time>2014-05-22T12:10:47Z</time>
      </trkpt>
      <trkpt lat="44.48709" lon="5.65628">
        <ele>1043.65</ele>
        <time>2014-05-22T12:11:05Z</time>
      </trkpt>
      <trkpt lat="44.48689" lon="5.65629">
        <ele>1041.73</ele>
        <time>2014-05-22T12:11:22Z</time>
      </trkpt>
      <trkpt lat="44.48668" lon="5.65629">
        <ele>1040.28</ele>
        <time>2014-05-22T12:11:40Z</time>
      </trkpt>
      <trkpt lat="44.48648" lon="5.65626">
        <ele>1038.36</ele>
        <time>2014-05-22T12:11:57Z</time>
      </trkpt>
      <trkpt lat="44.48631" lon="5.65626">
        <ele>1038.84</ele>
        <time>2014-05-22T12:12:11Z</time>
      </trkpt>
      <trkpt lat="44.48609" lon="5.65631">
        <ele>1038.36</ele>
        <time>2014-05-22T12:12:29Z</time>
      </trkpt>
      <trkpt lat="44.48607" lon="5.65633">
        <ele>1037.4</ele>
        <time>2014-05-22T12:12:31Z</time>
      </trkpt>
      <trkpt lat="44.48588" lon="5.65647">
        <ele>1037.4</ele>
        <time>2014-05-22T12:12:48Z</time>
      </trkpt>
      <trkpt lat="44.48591" lon="5.65681">
        <ele>1036.92</ele>
        <time>2014-05-22T12:13:05Z</time>
      </trkpt>
      <trkpt lat="44.48591" lon="5.65691">
        <ele>1037.4</ele>
        <time>2014-05-22T12:13:11Z</time>
      </trkpt>
      <trkpt lat="44.48599" lon="5.65724">
        <ele>1035</ele>
        <time>2014-05-22T12:13:31Z</time>
      </trkpt>
      <trkpt lat="44.48608" lon="5.65751">
        <ele>1032.59</ele>
        <time>2014-05-22T12:13:47Z</time>
      </trkpt>
      <trkpt lat="44.48616" lon="5.65782">
        <ele>1031.15</ele>
        <time>2014-05-22T12:14:06Z</time>
      </trkpt>
      <trkpt lat="44.48625" lon="5.65806">
        <ele>1029.71</ele>
        <time>2014-05-22T12:14:23Z</time>
      </trkpt>
      <trkpt lat="44.4864" lon="5.65824">
        <ele>1028.27</ele>
        <time>2014-05-22T12:14:39Z</time>
      </trkpt>
      <trkpt lat="44.48655" lon="5.65842">
        <ele>1026.83</ele>
        <time>2014-05-22T12:14:56Z</time>
      </trkpt>
      <trkpt lat="44.48672" lon="5.65862">
        <ele>1024.42</ele>
        <time>2014-05-22T12:15:14Z</time>
      </trkpt>
      <trkpt lat="44.48678" lon="5.65869">
        <ele>1023.94</ele>
        <time>2014-05-22T12:15:21Z</time>
      </trkpt>
      <trkpt lat="44.48682" lon="5.65875">
        <ele>1023.46</ele>
        <time>2014-05-22T12:15:25Z</time>
      </trkpt>
      <trkpt lat="44.48693" lon="5.6589">
        <ele>1022.02</ele>
        <time>2014-05-22T12:15:40Z</time>
      </trkpt>
      <trkpt lat="44.48705" lon="5.65901">
        <ele>1021.54</ele>
        <time>2014-05-22T12:15:53Z</time>
      </trkpt>
      <trkpt lat="44.48727" lon="5.65912">
        <ele>1019.62</ele>
        <time>2014-05-22T12:16:13Z</time>
      </trkpt>
      <trkpt lat="44.48745" lon="5.65925">
        <ele>1018.17</ele>
        <time>2014-05-22T12:16:32Z</time>
      </trkpt>
      <trkpt lat="44.48759" lon="5.65935">
        <ele>1017.21</ele>
        <time>2014-05-22T12:16:48Z</time>
      </trkpt>
      <trkpt lat="44.48762" lon="5.65946">
        <ele>1016.25</ele>
        <time>2014-05-22T12:17:03Z</time>
      </trkpt>
      <trkpt lat="44.4876" lon="5.65944">
        <ele>1016.25</ele>
        <time>2014-05-22T12:17:21Z</time>
      </trkpt>
      <trkpt lat="44.48759" lon="5.65947">
        <ele>1016.25</ele>
        <time>2014-05-22T12:17:44Z</time>
      </trkpt>
      <trkpt lat="44.4876" lon="5.65948">
        <ele>1015.29</ele>
        <time>2014-05-22T12:18:13Z</time>
      </trkpt>
      <trkpt lat="44.4876" lon="5.65945">
        <ele>1015.77</ele>
        <time>2014-05-22T12:18:42Z</time>
      </trkpt>
      <trkpt lat="44.48759" lon="5.65946">
        <ele>1015.77</ele>
        <time>2014-05-22T12:19:01Z</time>
      </trkpt>
      <trkpt lat="44.48758" lon="5.65949">
        <ele>1015.77</ele>
        <time>2014-05-22T12:19:27Z</time>
      </trkpt>
      <trkpt lat="44.48757" lon="5.65951">
        <ele>1015.77</ele>
        <time>2014-05-22T12:19:47Z</time>
      </trkpt>
      <trkpt lat="44.48756" lon="5.65954">
        <ele>1016.73</ele>
        <time>2014-05-22T12:20:11Z</time>
      </trkpt>
    </trkseg>
  </trk>
</gpx>